<?xml version="1.0" encoding="UTF-8" standalone="no" ?>
<gpx xmlns="http://www.topografix.com/GPX/1/1" xmlns:xsi="http://www.w3.org/2001/XMLSchema-instance" xsi:schemaLocation="http://www.topografix.com/GPX/1/1 http://www.topografix.com/GPX/1/1/gpx.xsd" version="1.1" creator="VisuGPX - https://www.visugpx.com">
  <metadata>
    <name>toulouse arenes - garonne - canal</name>
    <desc><![CDATA[Sortie course a pieds depart arenes - 12 km
pas de denivelé]]></desc>
  </metadata>
  <trk>
    <name><![CDATA[toulouse arenes - garonne - canal_1]]></name>
    <trkseg>
      <trkpt lat="43.59505" lon="1.41563">
        <ele>140</ele>
        <time>2017-03-06T11:07:18Z</time>
      </trkpt>
      <trkpt lat="43.59505" lon="1.41563">
        <ele>141</ele>
        <time>2017-03-06T11:07:50Z</time>
      </trkpt>
      <trkpt lat="43.59492" lon="1.41569">
        <ele>137.9</ele>
        <time>2017-03-06T11:08:09Z</time>
      </trkpt>
      <trkpt lat="43.5951" lon="1.41568">
        <ele>137.9</ele>
        <time>2017-03-06T11:08:26Z</time>
      </trkpt>
      <trkpt lat="43.59541" lon="1.41562">
        <ele>137.9</ele>
        <time>2017-03-06T11:08:33Z</time>
      </trkpt>
      <trkpt lat="43.59569" lon="1.41553">
        <ele>137.9</ele>
        <time>2017-03-06T11:08:43Z</time>
      </trkpt>
      <trkpt lat="43.59595" lon="1.41571">
        <ele>137.9</ele>
        <time>2017-03-06T11:08:51Z</time>
      </trkpt>
      <trkpt lat="43.59613" lon="1.41605">
        <ele>137.9</ele>
        <time>2017-03-06T11:09:00Z</time>
      </trkpt>
      <trkpt lat="43.59628" lon="1.41631">
        <ele>137.9</ele>
        <time>2017-03-06T11:09:10Z</time>
      </trkpt>
      <trkpt lat="43.59638" lon="1.41665">
        <ele>137.9</ele>
        <time>2017-03-06T11:09:20Z</time>
      </trkpt>
      <trkpt lat="43.59655" lon="1.41694">
        <ele>137.9</ele>
        <time>2017-03-06T11:09:29Z</time>
      </trkpt>
      <trkpt lat="43.59668" lon="1.41713">
        <ele>137.9</ele>
        <time>2017-03-06T11:09:41Z</time>
      </trkpt>
      <trkpt lat="43.59686" lon="1.41744">
        <ele>137.9</ele>
        <time>2017-03-06T11:09:51Z</time>
      </trkpt>
      <trkpt lat="43.59698" lon="1.41755">
        <ele>137.9</ele>
        <time>2017-03-06T11:09:59Z</time>
      </trkpt>
      <trkpt lat="43.59703" lon="1.41776">
        <ele>137.9</ele>
        <time>2017-03-06T11:10:05Z</time>
      </trkpt>
      <trkpt lat="43.59713" lon="1.41791">
        <ele>137.9</ele>
        <time>2017-03-06T11:10:07Z</time>
      </trkpt>
      <trkpt lat="43.59723" lon="1.41807">
        <ele>137.9</ele>
        <time>2017-03-06T11:10:12Z</time>
      </trkpt>
      <trkpt lat="43.59739" lon="1.41822">
        <ele>137.9</ele>
        <time>2017-03-06T11:10:19Z</time>
      </trkpt>
      <trkpt lat="43.5975" lon="1.41829">
        <ele>137.9</ele>
        <time>2017-03-06T11:10:25Z</time>
      </trkpt>
      <trkpt lat="43.59764" lon="1.41833">
        <ele>137.9</ele>
        <time>2017-03-06T11:10:31Z</time>
      </trkpt>
      <trkpt lat="43.59774" lon="1.41837">
        <ele>137.9</ele>
        <time>2017-03-06T11:10:34Z</time>
      </trkpt>
      <trkpt lat="43.59796" lon="1.41841">
        <ele>137.9</ele>
        <time>2017-03-06T11:10:43Z</time>
      </trkpt>
      <trkpt lat="43.59811" lon="1.4184">
        <ele>137.9</ele>
        <time>2017-03-06T11:10:48Z</time>
      </trkpt>
      <trkpt lat="43.5982" lon="1.41845">
        <ele>137.9</ele>
        <time>2017-03-06T11:10:53Z</time>
      </trkpt>
      <trkpt lat="43.59834" lon="1.41844">
        <ele>137.9</ele>
        <time>2017-03-06T11:10:57Z</time>
      </trkpt>
      <trkpt lat="43.59848" lon="1.41842">
        <ele>137.9</ele>
        <time>2017-03-06T11:11:07Z</time>
      </trkpt>
      <trkpt lat="43.59854" lon="1.41828">
        <ele>137.9</ele>
        <time>2017-03-06T11:11:11Z</time>
      </trkpt>
      <trkpt lat="43.59863" lon="1.41812">
        <ele>137.7</ele>
        <time>2017-03-06T11:11:18Z</time>
      </trkpt>
      <trkpt lat="43.59861" lon="1.41804">
        <ele>137.4</ele>
        <time>2017-03-06T11:11:20Z</time>
      </trkpt>
      <trkpt lat="43.59869" lon="1.41804">
        <ele>137.3</ele>
        <time>2017-03-06T11:11:25Z</time>
      </trkpt>
      <trkpt lat="43.59881" lon="1.41813">
        <ele>137</ele>
        <time>2017-03-06T11:11:29Z</time>
      </trkpt>
      <trkpt lat="43.59894" lon="1.41819">
        <ele>136.9</ele>
        <time>2017-03-06T11:11:32Z</time>
      </trkpt>
      <trkpt lat="43.59904" lon="1.41817">
        <ele>136.9</ele>
        <time>2017-03-06T11:11:36Z</time>
      </trkpt>
      <trkpt lat="43.59909" lon="1.41816">
        <ele>136.9</ele>
        <time>2017-03-06T11:11:39Z</time>
      </trkpt>
      <trkpt lat="43.59925" lon="1.41814">
        <ele>136.9</ele>
        <time>2017-03-06T11:11:50Z</time>
      </trkpt>
      <trkpt lat="43.59935" lon="1.4182">
        <ele>136.9</ele>
        <time>2017-03-06T11:11:56Z</time>
      </trkpt>
      <trkpt lat="43.59946" lon="1.41809">
        <ele>136.9</ele>
        <time>2017-03-06T11:12:00Z</time>
      </trkpt>
      <trkpt lat="43.59975" lon="1.41805">
        <ele>136.9</ele>
        <time>2017-03-06T11:12:06Z</time>
      </trkpt>
      <trkpt lat="43.59996" lon="1.41779">
        <ele>136.9</ele>
        <time>2017-03-06T11:12:14Z</time>
      </trkpt>
      <trkpt lat="43.60017" lon="1.41787">
        <ele>136.9</ele>
        <time>2017-03-06T11:12:24Z</time>
      </trkpt>
      <trkpt lat="43.60043" lon="1.41781">
        <ele>136.9</ele>
        <time>2017-03-06T11:12:34Z</time>
      </trkpt>
      <trkpt lat="43.60064" lon="1.41807">
        <ele>136.9</ele>
        <time>2017-03-06T11:12:40Z</time>
      </trkpt>
      <trkpt lat="43.60082" lon="1.41837">
        <ele>136.9</ele>
        <time>2017-03-06T11:12:45Z</time>
      </trkpt>
      <trkpt lat="43.6011" lon="1.41841">
        <ele>136.9</ele>
        <time>2017-03-06T11:12:55Z</time>
      </trkpt>
      <trkpt lat="43.60123" lon="1.41821">
        <ele>136.5</ele>
        <time>2017-03-06T11:13:06Z</time>
      </trkpt>
      <trkpt lat="43.60131" lon="1.41792">
        <ele>136.5</ele>
        <time>2017-03-06T11:13:16Z</time>
      </trkpt>
      <trkpt lat="43.60132" lon="1.41762">
        <ele>136.5</ele>
        <time>2017-03-06T11:13:26Z</time>
      </trkpt>
      <trkpt lat="43.60134" lon="1.41722">
        <ele>136.5</ele>
        <time>2017-03-06T11:13:36Z</time>
      </trkpt>
      <trkpt lat="43.60141" lon="1.41693">
        <ele>136.6</ele>
        <time>2017-03-06T11:13:46Z</time>
      </trkpt>
      <trkpt lat="43.60151" lon="1.41657">
        <ele>136.8</ele>
        <time>2017-03-06T11:13:55Z</time>
      </trkpt>
      <trkpt lat="43.60171" lon="1.41626">
        <ele>137.1</ele>
        <time>2017-03-06T11:14:02Z</time>
      </trkpt>
      <trkpt lat="43.60176" lon="1.41597">
        <ele>137.2</ele>
        <time>2017-03-06T11:14:12Z</time>
      </trkpt>
      <trkpt lat="43.60183" lon="1.41559">
        <ele>137.6</ele>
        <time>2017-03-06T11:14:22Z</time>
      </trkpt>
      <trkpt lat="43.60192" lon="1.41542">
        <ele>166.5</ele>
        <time>2017-03-06T11:14:42Z</time>
      </trkpt>
      <trkpt lat="43.60212" lon="1.41542">
        <ele>166.5</ele>
        <time>2017-03-06T11:14:54Z</time>
      </trkpt>
      <trkpt lat="43.60239" lon="1.41566">
        <ele>166.5</ele>
        <time>2017-03-06T11:15:00Z</time>
      </trkpt>
      <trkpt lat="43.60268" lon="1.41576">
        <ele>166.3</ele>
        <time>2017-03-06T11:15:04Z</time>
      </trkpt>
      <trkpt lat="43.60292" lon="1.41597">
        <ele>166</ele>
        <time>2017-03-06T11:15:13Z</time>
      </trkpt>
      <trkpt lat="43.60314" lon="1.41614">
        <ele>165.5</ele>
        <time>2017-03-06T11:15:23Z</time>
      </trkpt>
      <trkpt lat="43.60332" lon="1.41624">
        <ele>165.3</ele>
        <time>2017-03-06T11:15:34Z</time>
      </trkpt>
      <trkpt lat="43.6035" lon="1.41653">
        <ele>165.1</ele>
        <time>2017-03-06T11:15:42Z</time>
      </trkpt>
      <trkpt lat="43.60373" lon="1.41677">
        <ele>163.7</ele>
        <time>2017-03-06T11:15:52Z</time>
      </trkpt>
      <trkpt lat="43.60385" lon="1.41712">
        <ele>162.8</ele>
        <time>2017-03-06T11:15:59Z</time>
      </trkpt>
      <trkpt lat="43.60404" lon="1.41709">
        <ele>162.5</ele>
        <time>2017-03-06T11:16:09Z</time>
      </trkpt>
      <trkpt lat="43.60424" lon="1.41737">
        <ele>162.2</ele>
        <time>2017-03-06T11:16:19Z</time>
      </trkpt>
      <trkpt lat="43.60436" lon="1.41754">
        <ele>162</ele>
        <time>2017-03-06T11:16:24Z</time>
      </trkpt>
      <trkpt lat="43.60448" lon="1.41765">
        <ele>161.7</ele>
        <time>2017-03-06T11:16:28Z</time>
      </trkpt>
      <trkpt lat="43.60456" lon="1.41784">
        <ele>161.7</ele>
        <time>2017-03-06T11:16:32Z</time>
      </trkpt>
      <trkpt lat="43.6047" lon="1.41786">
        <ele>161.7</ele>
        <time>2017-03-06T11:16:38Z</time>
      </trkpt>
      <trkpt lat="43.60484" lon="1.41777">
        <ele>161.7</ele>
        <time>2017-03-06T11:16:48Z</time>
      </trkpt>
      <trkpt lat="43.60492" lon="1.4176">
        <ele>161.7</ele>
        <time>2017-03-06T11:16:52Z</time>
      </trkpt>
      <trkpt lat="43.605" lon="1.41744">
        <ele>161.9</ele>
        <time>2017-03-06T11:16:57Z</time>
      </trkpt>
      <trkpt lat="43.60508" lon="1.41726">
        <ele>163.1</ele>
        <time>2017-03-06T11:17:03Z</time>
      </trkpt>
      <trkpt lat="43.60515" lon="1.41712">
        <ele>163.6</ele>
        <time>2017-03-06T11:17:08Z</time>
      </trkpt>
      <trkpt lat="43.60517" lon="1.41704">
        <ele>164.3</ele>
        <time>2017-03-06T11:17:11Z</time>
      </trkpt>
      <trkpt lat="43.6052" lon="1.41699">
        <ele>164.3</ele>
        <time>2017-03-06T11:17:13Z</time>
      </trkpt>
      <trkpt lat="43.60525" lon="1.41687">
        <ele>165.2</ele>
        <time>2017-03-06T11:17:17Z</time>
      </trkpt>
      <trkpt lat="43.60532" lon="1.41674">
        <ele>165.4</ele>
        <time>2017-03-06T11:17:22Z</time>
      </trkpt>
      <trkpt lat="43.60536" lon="1.41663">
        <ele>165.7</ele>
        <time>2017-03-06T11:17:26Z</time>
      </trkpt>
      <trkpt lat="43.60542" lon="1.41652">
        <ele>166</ele>
        <time>2017-03-06T11:17:31Z</time>
      </trkpt>
      <trkpt lat="43.60552" lon="1.41633">
        <ele>166.1</ele>
        <time>2017-03-06T11:17:37Z</time>
      </trkpt>
      <trkpt lat="43.60557" lon="1.41621">
        <ele>166.2</ele>
        <time>2017-03-06T11:17:42Z</time>
      </trkpt>
      <trkpt lat="43.60565" lon="1.41607">
        <ele>166.2</ele>
        <time>2017-03-06T11:17:46Z</time>
      </trkpt>
      <trkpt lat="43.6057" lon="1.41594">
        <ele>166.1</ele>
        <time>2017-03-06T11:17:51Z</time>
      </trkpt>
      <trkpt lat="43.60579" lon="1.41581">
        <ele>166.1</ele>
        <time>2017-03-06T11:17:56Z</time>
      </trkpt>
      <trkpt lat="43.60587" lon="1.41569">
        <ele>166.1</ele>
        <time>2017-03-06T11:18:01Z</time>
      </trkpt>
      <trkpt lat="43.6059" lon="1.41559">
        <ele>166.1</ele>
        <time>2017-03-06T11:18:05Z</time>
      </trkpt>
      <trkpt lat="43.60597" lon="1.41547">
        <ele>166</ele>
        <time>2017-03-06T11:18:09Z</time>
      </trkpt>
      <trkpt lat="43.60604" lon="1.41533">
        <ele>166</ele>
        <time>2017-03-06T11:18:15Z</time>
      </trkpt>
      <trkpt lat="43.60615" lon="1.41516">
        <ele>165.9</ele>
        <time>2017-03-06T11:18:22Z</time>
      </trkpt>
      <trkpt lat="43.60621" lon="1.41506">
        <ele>165.8</ele>
        <time>2017-03-06T11:18:25Z</time>
      </trkpt>
      <trkpt lat="43.60628" lon="1.41491">
        <ele>165.7</ele>
        <time>2017-03-06T11:18:30Z</time>
      </trkpt>
      <trkpt lat="43.60636" lon="1.4148">
        <ele>165.6</ele>
        <time>2017-03-06T11:18:35Z</time>
      </trkpt>
      <trkpt lat="43.60642" lon="1.41468">
        <ele>165.5</ele>
        <time>2017-03-06T11:18:39Z</time>
      </trkpt>
      <trkpt lat="43.60651" lon="1.41454">
        <ele>165.5</ele>
        <time>2017-03-06T11:18:45Z</time>
      </trkpt>
      <trkpt lat="43.60658" lon="1.41442">
        <ele>165.6</ele>
        <time>2017-03-06T11:18:51Z</time>
      </trkpt>
      <trkpt lat="43.60669" lon="1.41427">
        <ele>165.6</ele>
        <time>2017-03-06T11:18:58Z</time>
      </trkpt>
      <trkpt lat="43.60674" lon="1.41414">
        <ele>165.5</ele>
        <time>2017-03-06T11:19:02Z</time>
      </trkpt>
      <trkpt lat="43.60684" lon="1.41397">
        <ele>165.5</ele>
        <time>2017-03-06T11:19:09Z</time>
      </trkpt>
      <trkpt lat="43.60689" lon="1.41387">
        <ele>165.5</ele>
        <time>2017-03-06T11:19:13Z</time>
      </trkpt>
      <trkpt lat="43.60698" lon="1.41375">
        <ele>165.6</ele>
        <time>2017-03-06T11:19:19Z</time>
      </trkpt>
      <trkpt lat="43.60707" lon="1.4136">
        <ele>165.8</ele>
        <time>2017-03-06T11:19:24Z</time>
      </trkpt>
      <trkpt lat="43.60715" lon="1.41346">
        <ele>166</ele>
        <time>2017-03-06T11:19:29Z</time>
      </trkpt>
      <trkpt lat="43.60725" lon="1.41332">
        <ele>166.1</ele>
        <time>2017-03-06T11:19:34Z</time>
      </trkpt>
      <trkpt lat="43.60734" lon="1.41317">
        <ele>166.1</ele>
        <time>2017-03-06T11:19:39Z</time>
      </trkpt>
      <trkpt lat="43.60742" lon="1.41302">
        <ele>166.2</ele>
        <time>2017-03-06T11:19:44Z</time>
      </trkpt>
      <trkpt lat="43.6075" lon="1.41287">
        <ele>166.2</ele>
        <time>2017-03-06T11:19:50Z</time>
      </trkpt>
      <trkpt lat="43.60753" lon="1.41281">
        <ele>166.1</ele>
        <time>2017-03-06T11:19:54Z</time>
      </trkpt>
      <trkpt lat="43.60765" lon="1.41264">
        <ele>166</ele>
        <time>2017-03-06T11:20:00Z</time>
      </trkpt>
      <trkpt lat="43.60773" lon="1.41248">
        <ele>166</ele>
        <time>2017-03-06T11:20:06Z</time>
      </trkpt>
      <trkpt lat="43.60779" lon="1.41238">
        <ele>166.1</ele>
        <time>2017-03-06T11:20:09Z</time>
      </trkpt>
      <trkpt lat="43.60786" lon="1.41228">
        <ele>166.1</ele>
        <time>2017-03-06T11:20:12Z</time>
      </trkpt>
      <trkpt lat="43.60795" lon="1.41211">
        <ele>166.2</ele>
        <time>2017-03-06T11:20:18Z</time>
      </trkpt>
      <trkpt lat="43.60802" lon="1.41192">
        <ele>166.2</ele>
        <time>2017-03-06T11:20:23Z</time>
      </trkpt>
      <trkpt lat="43.60808" lon="1.41174">
        <ele>166</ele>
        <time>2017-03-06T11:20:30Z</time>
      </trkpt>
      <trkpt lat="43.60811" lon="1.41167">
        <ele>165.9</ele>
        <time>2017-03-06T11:20:33Z</time>
      </trkpt>
      <trkpt lat="43.60814" lon="1.41161">
        <ele>165.8</ele>
        <time>2017-03-06T11:20:36Z</time>
      </trkpt>
      <trkpt lat="43.60815" lon="1.41153">
        <ele>165.8</ele>
        <time>2017-03-06T11:20:39Z</time>
      </trkpt>
      <trkpt lat="43.60817" lon="1.41133">
        <ele>165.5</ele>
        <time>2017-03-06T11:20:44Z</time>
      </trkpt>
      <trkpt lat="43.60816" lon="1.41121">
        <ele>162.1</ele>
        <time>2017-03-06T11:21:24Z</time>
      </trkpt>
      <trkpt lat="43.60825" lon="1.41091">
        <ele>162.1</ele>
        <time>2017-03-06T11:21:34Z</time>
      </trkpt>
      <trkpt lat="43.60832" lon="1.4108">
        <ele>162.1</ele>
        <time>2017-03-06T11:21:39Z</time>
      </trkpt>
      <trkpt lat="43.60839" lon="1.41092">
        <ele>162.2</ele>
        <time>2017-03-06T11:21:47Z</time>
      </trkpt>
      <trkpt lat="43.60848" lon="1.4111">
        <ele>162.3</ele>
        <time>2017-03-06T11:21:51Z</time>
      </trkpt>
      <trkpt lat="43.60855" lon="1.41125">
        <ele>162.9</ele>
        <time>2017-03-06T11:21:55Z</time>
      </trkpt>
      <trkpt lat="43.60862" lon="1.41137">
        <ele>163.4</ele>
        <time>2017-03-06T11:21:59Z</time>
      </trkpt>
      <trkpt lat="43.60869" lon="1.41155">
        <ele>164.2</ele>
        <time>2017-03-06T11:22:03Z</time>
      </trkpt>
      <trkpt lat="43.60873" lon="1.41163">
        <ele>166.7</ele>
        <time>2017-03-06T11:22:06Z</time>
      </trkpt>
      <trkpt lat="43.60875" lon="1.41171">
        <ele>166.7</ele>
        <time>2017-03-06T11:22:08Z</time>
      </trkpt>
      <trkpt lat="43.60883" lon="1.41185">
        <ele>167.3</ele>
        <time>2017-03-06T11:22:12Z</time>
      </trkpt>
      <trkpt lat="43.60891" lon="1.41204">
        <ele>167.4</ele>
        <time>2017-03-06T11:22:17Z</time>
      </trkpt>
      <trkpt lat="43.60896" lon="1.41221">
        <ele>167.5</ele>
        <time>2017-03-06T11:22:21Z</time>
      </trkpt>
      <trkpt lat="43.60901" lon="1.41236">
        <ele>167.5</ele>
        <time>2017-03-06T11:22:25Z</time>
      </trkpt>
      <trkpt lat="43.6091" lon="1.4125">
        <ele>167.7</ele>
        <time>2017-03-06T11:22:29Z</time>
      </trkpt>
      <trkpt lat="43.60914" lon="1.41269">
        <ele>167.8</ele>
        <time>2017-03-06T11:22:33Z</time>
      </trkpt>
      <trkpt lat="43.6092" lon="1.41284">
        <ele>167.9</ele>
        <time>2017-03-06T11:22:37Z</time>
      </trkpt>
      <trkpt lat="43.60926" lon="1.41293">
        <ele>168</ele>
        <time>2017-03-06T11:22:42Z</time>
      </trkpt>
      <trkpt lat="43.60938" lon="1.4131">
        <ele>167.8</ele>
        <time>2017-03-06T11:22:49Z</time>
      </trkpt>
      <trkpt lat="43.60934" lon="1.41314">
        <ele>167.6</ele>
        <time>2017-03-06T11:22:53Z</time>
      </trkpt>
      <trkpt lat="43.60923" lon="1.41327">
        <ele>167.6</ele>
        <time>2017-03-06T11:22:58Z</time>
      </trkpt>
      <trkpt lat="43.60917" lon="1.41338">
        <ele>167.6</ele>
        <time>2017-03-06T11:23:02Z</time>
      </trkpt>
      <trkpt lat="43.60906" lon="1.4135">
        <ele>167.6</ele>
        <time>2017-03-06T11:23:06Z</time>
      </trkpt>
      <trkpt lat="43.60906" lon="1.41363">
        <ele>167.6</ele>
        <time>2017-03-06T11:23:09Z</time>
      </trkpt>
      <trkpt lat="43.6092" lon="1.41354">
        <ele>167.5</ele>
        <time>2017-03-06T11:23:17Z</time>
      </trkpt>
      <trkpt lat="43.60929" lon="1.41363">
        <ele>167.2</ele>
        <time>2017-03-06T11:23:21Z</time>
      </trkpt>
      <trkpt lat="43.60937" lon="1.41374">
        <ele>166.1</ele>
        <time>2017-03-06T11:23:26Z</time>
      </trkpt>
      <trkpt lat="43.60945" lon="1.41391">
        <ele>165.3</ele>
        <time>2017-03-06T11:23:31Z</time>
      </trkpt>
      <trkpt lat="43.60952" lon="1.41402">
        <ele>165</ele>
        <time>2017-03-06T11:23:35Z</time>
      </trkpt>
      <trkpt lat="43.60961" lon="1.4142">
        <ele>164.8</ele>
        <time>2017-03-06T11:23:41Z</time>
      </trkpt>
      <trkpt lat="43.6097" lon="1.41436">
        <ele>163.6</ele>
        <time>2017-03-06T11:23:47Z</time>
      </trkpt>
      <trkpt lat="43.60972" lon="1.41451">
        <ele>163.2</ele>
        <time>2017-03-06T11:23:51Z</time>
      </trkpt>
      <trkpt lat="43.60974" lon="1.41471">
        <ele>162.8</ele>
        <time>2017-03-06T11:23:55Z</time>
      </trkpt>
      <trkpt lat="43.6097" lon="1.41492">
        <ele>162</ele>
        <time>2017-03-06T11:23:59Z</time>
      </trkpt>
      <trkpt lat="43.60963" lon="1.41509">
        <ele>161.6</ele>
        <time>2017-03-06T11:24:03Z</time>
      </trkpt>
      <trkpt lat="43.60958" lon="1.41525">
        <ele>161.4</ele>
        <time>2017-03-06T11:24:08Z</time>
      </trkpt>
      <trkpt lat="43.60948" lon="1.4154">
        <ele>161.3</ele>
        <time>2017-03-06T11:24:16Z</time>
      </trkpt>
      <trkpt lat="43.6094" lon="1.41547">
        <ele>160.9</ele>
        <time>2017-03-06T11:24:21Z</time>
      </trkpt>
      <trkpt lat="43.60936" lon="1.4155">
        <ele>160.5</ele>
        <time>2017-03-06T11:24:27Z</time>
      </trkpt>
      <trkpt lat="43.60932" lon="1.41559">
        <ele>160.5</ele>
        <time>2017-03-06T11:24:29Z</time>
      </trkpt>
      <trkpt lat="43.60925" lon="1.41562">
        <ele>160.5</ele>
        <time>2017-03-06T11:24:32Z</time>
      </trkpt>
      <trkpt lat="43.6089" lon="1.41571">
        <ele>160.5</ele>
        <time>2017-03-06T11:24:38Z</time>
      </trkpt>
      <trkpt lat="43.60892" lon="1.41608">
        <ele>160.5</ele>
        <time>2017-03-06T11:24:46Z</time>
      </trkpt>
      <trkpt lat="43.60915" lon="1.41618">
        <ele>160.7</ele>
        <time>2017-03-06T11:24:55Z</time>
      </trkpt>
      <trkpt lat="43.60924" lon="1.41617">
        <ele>160.8</ele>
        <time>2017-03-06T11:24:59Z</time>
      </trkpt>
      <trkpt lat="43.60937" lon="1.41618">
        <ele>160.9</ele>
        <time>2017-03-06T11:25:06Z</time>
      </trkpt>
      <trkpt lat="43.60953" lon="1.41619">
        <ele>160.9</ele>
        <time>2017-03-06T11:25:11Z</time>
      </trkpt>
      <trkpt lat="43.60966" lon="1.41624">
        <ele>161.1</ele>
        <time>2017-03-06T11:25:18Z</time>
      </trkpt>
      <trkpt lat="43.60968" lon="1.4163">
        <ele>161.4</ele>
        <time>2017-03-06T11:25:22Z</time>
      </trkpt>
      <trkpt lat="43.60973" lon="1.41633">
        <ele>161.4</ele>
        <time>2017-03-06T11:25:25Z</time>
      </trkpt>
      <trkpt lat="43.6098" lon="1.41663">
        <ele>161.5</ele>
        <time>2017-03-06T11:25:35Z</time>
      </trkpt>
      <trkpt lat="43.60993" lon="1.41696">
        <ele>161.5</ele>
        <time>2017-03-06T11:25:45Z</time>
      </trkpt>
      <trkpt lat="43.61" lon="1.41721">
        <ele>161.5</ele>
        <time>2017-03-06T11:25:55Z</time>
      </trkpt>
      <trkpt lat="43.61012" lon="1.41756">
        <ele>161.5</ele>
        <time>2017-03-06T11:25:59Z</time>
      </trkpt>
      <trkpt lat="43.61022" lon="1.41745">
        <ele>161.5</ele>
        <time>2017-03-06T11:26:01Z</time>
      </trkpt>
      <trkpt lat="43.61025" lon="1.41765">
        <ele>161.4</ele>
        <time>2017-03-06T11:26:11Z</time>
      </trkpt>
      <trkpt lat="43.61033" lon="1.41786">
        <ele>161.4</ele>
        <time>2017-03-06T11:26:13Z</time>
      </trkpt>
      <trkpt lat="43.61033" lon="1.41793">
        <ele>161.1</ele>
        <time>2017-03-06T11:26:23Z</time>
      </trkpt>
      <trkpt lat="43.61026" lon="1.4179">
        <ele>161.1</ele>
        <time>2017-03-06T11:26:26Z</time>
      </trkpt>
      <trkpt lat="43.61006" lon="1.4178">
        <ele>160.8</ele>
        <time>2017-03-06T11:26:34Z</time>
      </trkpt>
      <trkpt lat="43.60995" lon="1.41762">
        <ele>160.8</ele>
        <time>2017-03-06T11:26:40Z</time>
      </trkpt>
      <trkpt lat="43.60988" lon="1.41752">
        <ele>160.8</ele>
        <time>2017-03-06T11:26:44Z</time>
      </trkpt>
      <trkpt lat="43.6098" lon="1.41736">
        <ele>160.8</ele>
        <time>2017-03-06T11:26:50Z</time>
      </trkpt>
      <trkpt lat="43.60971" lon="1.41724">
        <ele>160.8</ele>
        <time>2017-03-06T11:26:53Z</time>
      </trkpt>
      <trkpt lat="43.60968" lon="1.41698">
        <ele>160.6</ele>
        <time>2017-03-06T11:27:01Z</time>
      </trkpt>
      <trkpt lat="43.60964" lon="1.41687">
        <ele>160.5</ele>
        <time>2017-03-06T11:27:05Z</time>
      </trkpt>
      <trkpt lat="43.60949" lon="1.41688">
        <ele>160.5</ele>
        <time>2017-03-06T11:27:08Z</time>
      </trkpt>
      <trkpt lat="43.60938" lon="1.41698">
        <ele>160.4</ele>
        <time>2017-03-06T11:27:16Z</time>
      </trkpt>
      <trkpt lat="43.60948" lon="1.41711">
        <ele>160.4</ele>
        <time>2017-03-06T11:27:23Z</time>
      </trkpt>
      <trkpt lat="43.60956" lon="1.41728">
        <ele>160.4</ele>
        <time>2017-03-06T11:27:29Z</time>
      </trkpt>
      <trkpt lat="43.60963" lon="1.41743">
        <ele>160.4</ele>
        <time>2017-03-06T11:27:33Z</time>
      </trkpt>
      <trkpt lat="43.60971" lon="1.4176">
        <ele>160.1</ele>
        <time>2017-03-06T11:27:40Z</time>
      </trkpt>
      <trkpt lat="43.60974" lon="1.41772">
        <ele>160</ele>
        <time>2017-03-06T11:27:45Z</time>
      </trkpt>
      <trkpt lat="43.60983" lon="1.41788">
        <ele>159.9</ele>
        <time>2017-03-06T11:27:49Z</time>
      </trkpt>
      <trkpt lat="43.60995" lon="1.41803">
        <ele>159.9</ele>
        <time>2017-03-06T11:27:56Z</time>
      </trkpt>
      <trkpt lat="43.61002" lon="1.4184">
        <ele>159.8</ele>
        <time>2017-03-06T11:28:06Z</time>
      </trkpt>
      <trkpt lat="43.61002" lon="1.41864">
        <ele>159.7</ele>
        <time>2017-03-06T11:28:26Z</time>
      </trkpt>
      <trkpt lat="43.61004" lon="1.41906">
        <ele>159.8</ele>
        <time>2017-03-06T11:28:36Z</time>
      </trkpt>
      <trkpt lat="43.61016" lon="1.41926">
        <ele>159.9</ele>
        <time>2017-03-06T11:28:46Z</time>
      </trkpt>
      <trkpt lat="43.6102" lon="1.4195">
        <ele>161.6</ele>
        <time>2017-03-06T11:29:06Z</time>
      </trkpt>
      <trkpt lat="43.61008" lon="1.41972">
        <ele>161.6</ele>
        <time>2017-03-06T11:29:16Z</time>
      </trkpt>
      <trkpt lat="43.60995" lon="1.42009">
        <ele>161.4</ele>
        <time>2017-03-06T11:29:25Z</time>
      </trkpt>
      <trkpt lat="43.60989" lon="1.42043">
        <ele>161.1</ele>
        <time>2017-03-06T11:29:35Z</time>
      </trkpt>
      <trkpt lat="43.60971" lon="1.42069">
        <ele>160.9</ele>
        <time>2017-03-06T11:29:45Z</time>
      </trkpt>
      <trkpt lat="43.60958" lon="1.42105">
        <ele>160.6</ele>
        <time>2017-03-06T11:29:55Z</time>
      </trkpt>
      <trkpt lat="43.60948" lon="1.4214">
        <ele>159.9</ele>
        <time>2017-03-06T11:30:04Z</time>
      </trkpt>
      <trkpt lat="43.60936" lon="1.42166">
        <ele>159.3</ele>
        <time>2017-03-06T11:30:14Z</time>
      </trkpt>
      <trkpt lat="43.60928" lon="1.42195">
        <ele>159.1</ele>
        <time>2017-03-06T11:30:24Z</time>
      </trkpt>
      <trkpt lat="43.60914" lon="1.42225">
        <ele>158.9</ele>
        <time>2017-03-06T11:30:34Z</time>
      </trkpt>
      <trkpt lat="43.60907" lon="1.42255">
        <ele>158.9</ele>
        <time>2017-03-06T11:30:44Z</time>
      </trkpt>
      <trkpt lat="43.60902" lon="1.42288">
        <ele>158.8</ele>
        <time>2017-03-06T11:30:54Z</time>
      </trkpt>
      <trkpt lat="43.60891" lon="1.42325">
        <ele>158.8</ele>
        <time>2017-03-06T11:31:03Z</time>
      </trkpt>
      <trkpt lat="43.60881" lon="1.42353">
        <ele>158.7</ele>
        <time>2017-03-06T11:31:13Z</time>
      </trkpt>
      <trkpt lat="43.60872" lon="1.42383">
        <ele>158.6</ele>
        <time>2017-03-06T11:31:23Z</time>
      </trkpt>
      <trkpt lat="43.60864" lon="1.42421">
        <ele>158.8</ele>
        <time>2017-03-06T11:31:32Z</time>
      </trkpt>
      <trkpt lat="43.60844" lon="1.42449">
        <ele>158.8</ele>
        <time>2017-03-06T11:31:41Z</time>
      </trkpt>
      <trkpt lat="43.60833" lon="1.42477">
        <ele>170.9</ele>
        <time>2017-03-06T11:31:53Z</time>
      </trkpt>
      <trkpt lat="43.60825" lon="1.42506">
        <ele>195.3</ele>
        <time>2017-03-06T11:32:03Z</time>
      </trkpt>
      <trkpt lat="43.60813" lon="1.42536">
        <ele>230.2</ele>
        <time>2017-03-06T11:32:13Z</time>
      </trkpt>
      <trkpt lat="43.60807" lon="1.42571">
        <ele>249.2</ele>
        <time>2017-03-06T11:32:23Z</time>
      </trkpt>
      <trkpt lat="43.60796" lon="1.42601">
        <ele>256.2</ele>
        <time>2017-03-06T11:32:33Z</time>
      </trkpt>
      <trkpt lat="43.60779" lon="1.42632">
        <ele>260.8</ele>
        <time>2017-03-06T11:32:40Z</time>
      </trkpt>
      <trkpt lat="43.60773" lon="1.42666">
        <ele>263.6</ele>
        <time>2017-03-06T11:32:50Z</time>
      </trkpt>
      <trkpt lat="43.60756" lon="1.42691">
        <ele>267.9</ele>
        <time>2017-03-06T11:33:00Z</time>
      </trkpt>
      <trkpt lat="43.60751" lon="1.42729">
        <ele>272.1</ele>
        <time>2017-03-06T11:33:08Z</time>
      </trkpt>
      <trkpt lat="43.60745" lon="1.4276">
        <ele>275.8</ele>
        <time>2017-03-06T11:33:18Z</time>
      </trkpt>
      <trkpt lat="43.60744" lon="1.42805">
        <ele>277.1</ele>
        <time>2017-03-06T11:33:28Z</time>
      </trkpt>
      <trkpt lat="43.60715" lon="1.42826">
        <ele>279.1</ele>
        <time>2017-03-06T11:33:37Z</time>
      </trkpt>
      <trkpt lat="43.60694" lon="1.42851">
        <ele>279.3</ele>
        <time>2017-03-06T11:33:42Z</time>
      </trkpt>
      <trkpt lat="43.60688" lon="1.42877">
        <ele>279.3</ele>
        <time>2017-03-06T11:33:52Z</time>
      </trkpt>
      <trkpt lat="43.60675" lon="1.42904">
        <ele>279.3</ele>
        <time>2017-03-06T11:34:02Z</time>
      </trkpt>
      <trkpt lat="43.60657" lon="1.42929">
        <ele>163.1</ele>
        <time>2017-03-06T11:34:12Z</time>
      </trkpt>
      <trkpt lat="43.60639" lon="1.42958">
        <ele>159</ele>
        <time>2017-03-06T11:34:22Z</time>
      </trkpt>
      <trkpt lat="43.60632" lon="1.42991">
        <ele>158.7</ele>
        <time>2017-03-06T11:34:32Z</time>
      </trkpt>
      <trkpt lat="43.60633" lon="1.4299">
        <ele>158.5</ele>
        <time>2017-03-06T11:34:36Z</time>
      </trkpt>
      <trkpt lat="43.60634" lon="1.43027">
        <ele>158.3</ele>
        <time>2017-03-06T11:34:46Z</time>
      </trkpt>
      <trkpt lat="43.60618" lon="1.43062">
        <ele>158.2</ele>
        <time>2017-03-06T11:34:56Z</time>
      </trkpt>
      <trkpt lat="43.60607" lon="1.43093">
        <ele>158.2</ele>
        <time>2017-03-06T11:35:06Z</time>
      </trkpt>
      <trkpt lat="43.60589" lon="1.43125">
        <ele>158.2</ele>
        <time>2017-03-06T11:35:15Z</time>
      </trkpt>
      <trkpt lat="43.60583" lon="1.43164">
        <ele>158.2</ele>
        <time>2017-03-06T11:35:23Z</time>
      </trkpt>
      <trkpt lat="43.60562" lon="1.4319">
        <ele>158.7</ele>
        <time>2017-03-06T11:35:33Z</time>
      </trkpt>
      <trkpt lat="43.60557" lon="1.43215">
        <ele>158.7</ele>
        <time>2017-03-06T11:35:44Z</time>
      </trkpt>
      <trkpt lat="43.60543" lon="1.43236">
        <ele>158.7</ele>
        <time>2017-03-06T11:35:54Z</time>
      </trkpt>
      <trkpt lat="43.60534" lon="1.43269">
        <ele>158.8</ele>
        <time>2017-03-06T11:36:04Z</time>
      </trkpt>
      <trkpt lat="43.60529" lon="1.43307">
        <ele>158.8</ele>
        <time>2017-03-06T11:36:12Z</time>
      </trkpt>
      <trkpt lat="43.60519" lon="1.43344">
        <ele>158.9</ele>
        <time>2017-03-06T11:36:22Z</time>
      </trkpt>
      <trkpt lat="43.6051" lon="1.43379">
        <ele>158.9</ele>
        <time>2017-03-06T11:36:32Z</time>
      </trkpt>
      <trkpt lat="43.60507" lon="1.43406">
        <ele>159.1</ele>
        <time>2017-03-06T11:36:42Z</time>
      </trkpt>
      <trkpt lat="43.60487" lon="1.43434">
        <ele>159.2</ele>
        <time>2017-03-06T11:36:52Z</time>
      </trkpt>
      <trkpt lat="43.60459" lon="1.43446">
        <ele>159.3</ele>
        <time>2017-03-06T11:36:58Z</time>
      </trkpt>
      <trkpt lat="43.60435" lon="1.43426">
        <ele>159.4</ele>
        <time>2017-03-06T11:37:07Z</time>
      </trkpt>
      <trkpt lat="43.60413" lon="1.43414">
        <ele>159.6</ele>
        <time>2017-03-06T11:37:17Z</time>
      </trkpt>
      <trkpt lat="43.60396" lon="1.43424">
        <ele>160</ele>
        <time>2017-03-06T11:37:32Z</time>
      </trkpt>
      <trkpt lat="43.6039" lon="1.43427">
        <ele>160.1</ele>
        <time>2017-03-06T11:37:39Z</time>
      </trkpt>
      <trkpt lat="43.60389" lon="1.43428">
        <ele>160.1</ele>
        <time>2017-03-06T11:37:41Z</time>
      </trkpt>
      <trkpt lat="43.60386" lon="1.43419">
        <ele>160.1</ele>
        <time>2017-03-06T11:37:44Z</time>
      </trkpt>
      <trkpt lat="43.60361" lon="1.43437">
        <ele>160.1</ele>
        <time>2017-03-06T11:37:53Z</time>
      </trkpt>
      <trkpt lat="43.60342" lon="1.43464">
        <ele>159.8</ele>
        <time>2017-03-06T11:38:03Z</time>
      </trkpt>
      <trkpt lat="43.60333" lon="1.43492">
        <ele>157.9</ele>
        <time>2017-03-06T11:38:13Z</time>
      </trkpt>
      <trkpt lat="43.60321" lon="1.43527">
        <ele>156.5</ele>
        <time>2017-03-06T11:38:23Z</time>
      </trkpt>
      <trkpt lat="43.60312" lon="1.43549">
        <ele>156</ele>
        <time>2017-03-06T11:38:33Z</time>
      </trkpt>
      <trkpt lat="43.60297" lon="1.43577">
        <ele>155.8</ele>
        <time>2017-03-06T11:38:43Z</time>
      </trkpt>
      <trkpt lat="43.60278" lon="1.43604">
        <ele>155.7</ele>
        <time>2017-03-06T11:38:53Z</time>
      </trkpt>
      <trkpt lat="43.60265" lon="1.43628">
        <ele>155.5</ele>
        <time>2017-03-06T11:39:03Z</time>
      </trkpt>
      <trkpt lat="43.60245" lon="1.4365">
        <ele>155.4</ele>
        <time>2017-03-06T11:39:13Z</time>
      </trkpt>
      <trkpt lat="43.60228" lon="1.43672">
        <ele>155.4</ele>
        <time>2017-03-06T11:39:23Z</time>
      </trkpt>
      <trkpt lat="43.60215" lon="1.43699">
        <ele>155.5</ele>
        <time>2017-03-06T11:39:33Z</time>
      </trkpt>
      <trkpt lat="43.60197" lon="1.43728">
        <ele>155.4</ele>
        <time>2017-03-06T11:39:42Z</time>
      </trkpt>
      <trkpt lat="43.60185" lon="1.43753">
        <ele>155.3</ele>
        <time>2017-03-06T11:39:52Z</time>
      </trkpt>
      <trkpt lat="43.60168" lon="1.43783">
        <ele>155.3</ele>
        <time>2017-03-06T11:40:02Z</time>
      </trkpt>
      <trkpt lat="43.60156" lon="1.43812">
        <ele>155.2</ele>
        <time>2017-03-06T11:40:12Z</time>
      </trkpt>
      <trkpt lat="43.60141" lon="1.43847">
        <ele>155.2</ele>
        <time>2017-03-06T11:40:21Z</time>
      </trkpt>
      <trkpt lat="43.60126" lon="1.43871">
        <ele>155.2</ele>
        <time>2017-03-06T11:40:31Z</time>
      </trkpt>
      <trkpt lat="43.60109" lon="1.43891">
        <ele>155.6</ele>
        <time>2017-03-06T11:40:41Z</time>
      </trkpt>
      <trkpt lat="43.60086" lon="1.43914">
        <ele>155.7</ele>
        <time>2017-03-06T11:40:51Z</time>
      </trkpt>
      <trkpt lat="43.60063" lon="1.43931">
        <ele>155.6</ele>
        <time>2017-03-06T11:41:01Z</time>
      </trkpt>
      <trkpt lat="43.60045" lon="1.43952">
        <ele>155.7</ele>
        <time>2017-03-06T11:41:11Z</time>
      </trkpt>
      <trkpt lat="43.60024" lon="1.43971">
        <ele>155.7</ele>
        <time>2017-03-06T11:41:21Z</time>
      </trkpt>
      <trkpt lat="43.60003" lon="1.43991">
        <ele>155.5</ele>
        <time>2017-03-06T11:41:31Z</time>
      </trkpt>
      <trkpt lat="43.59981" lon="1.44001">
        <ele>155.2</ele>
        <time>2017-03-06T11:41:41Z</time>
      </trkpt>
      <trkpt lat="43.59962" lon="1.4401">
        <ele>154.8</ele>
        <time>2017-03-06T11:41:53Z</time>
      </trkpt>
      <trkpt lat="43.59955" lon="1.44013">
        <ele>154.8</ele>
        <time>2017-03-06T11:41:56Z</time>
      </trkpt>
      <trkpt lat="43.59927" lon="1.44007">
        <ele>135.2</ele>
        <time>2017-03-06T11:42:06Z</time>
      </trkpt>
      <trkpt lat="43.59906" lon="1.44005">
        <ele>131.9</ele>
        <time>2017-03-06T11:42:16Z</time>
      </trkpt>
      <trkpt lat="43.5988" lon="1.44009">
        <ele>131.9</ele>
        <time>2017-03-06T11:42:26Z</time>
      </trkpt>
      <trkpt lat="43.5986" lon="1.44005">
        <ele>131.9</ele>
        <time>2017-03-06T11:42:36Z</time>
      </trkpt>
      <trkpt lat="43.5983" lon="1.44">
        <ele>131.9</ele>
        <time>2017-03-06T11:42:46Z</time>
      </trkpt>
      <trkpt lat="43.59807" lon="1.43997">
        <ele>131.9</ele>
        <time>2017-03-06T11:42:56Z</time>
      </trkpt>
      <trkpt lat="43.59781" lon="1.43983">
        <ele>131.9</ele>
        <time>2017-03-06T11:43:06Z</time>
      </trkpt>
      <trkpt lat="43.59749" lon="1.4398">
        <ele>131.9</ele>
        <time>2017-03-06T11:43:16Z</time>
      </trkpt>
      <trkpt lat="43.59725" lon="1.4398">
        <ele>131.9</ele>
        <time>2017-03-06T11:43:26Z</time>
      </trkpt>
      <trkpt lat="43.59696" lon="1.43978">
        <ele>131.9</ele>
        <time>2017-03-06T11:43:36Z</time>
      </trkpt>
      <trkpt lat="43.59674" lon="1.43977">
        <ele>131.9</ele>
        <time>2017-03-06T11:43:46Z</time>
      </trkpt>
      <trkpt lat="43.59646" lon="1.43973">
        <ele>131.9</ele>
        <time>2017-03-06T11:43:55Z</time>
      </trkpt>
      <trkpt lat="43.59623" lon="1.43973">
        <ele>131.9</ele>
        <time>2017-03-06T11:44:05Z</time>
      </trkpt>
      <trkpt lat="43.59596" lon="1.43985">
        <ele>131.9</ele>
        <time>2017-03-06T11:44:15Z</time>
      </trkpt>
      <trkpt lat="43.59578" lon="1.44005">
        <ele>131.9</ele>
        <time>2017-03-06T11:44:25Z</time>
      </trkpt>
      <trkpt lat="43.59554" lon="1.44017">
        <ele>131.9</ele>
        <time>2017-03-06T11:44:35Z</time>
      </trkpt>
      <trkpt lat="43.5953" lon="1.4403">
        <ele>131.9</ele>
        <time>2017-03-06T11:44:45Z</time>
      </trkpt>
      <trkpt lat="43.59512" lon="1.44035">
        <ele>131.9</ele>
        <time>2017-03-06T11:44:56Z</time>
      </trkpt>
      <trkpt lat="43.59492" lon="1.44038">
        <ele>131.9</ele>
        <time>2017-03-06T11:45:06Z</time>
      </trkpt>
      <trkpt lat="43.59465" lon="1.44043">
        <ele>131.9</ele>
        <time>2017-03-06T11:45:14Z</time>
      </trkpt>
      <trkpt lat="43.59444" lon="1.4407">
        <ele>132.2</ele>
        <time>2017-03-06T11:45:24Z</time>
      </trkpt>
      <trkpt lat="43.59427" lon="1.44091">
        <ele>132.3</ele>
        <time>2017-03-06T11:45:33Z</time>
      </trkpt>
      <trkpt lat="43.5942" lon="1.44102">
        <ele>132.4</ele>
        <time>2017-03-06T11:45:37Z</time>
      </trkpt>
      <trkpt lat="43.5941" lon="1.44116">
        <ele>132.4</ele>
        <time>2017-03-06T11:45:42Z</time>
      </trkpt>
      <trkpt lat="43.59403" lon="1.44127">
        <ele>132.4</ele>
        <time>2017-03-06T11:45:47Z</time>
      </trkpt>
      <trkpt lat="43.594" lon="1.44134">
        <ele>132.4</ele>
        <time>2017-03-06T11:45:49Z</time>
      </trkpt>
      <trkpt lat="43.59396" lon="1.44139">
        <ele>132.4</ele>
        <time>2017-03-06T11:45:51Z</time>
      </trkpt>
      <trkpt lat="43.59389" lon="1.4415">
        <ele>132.4</ele>
        <time>2017-03-06T11:45:55Z</time>
      </trkpt>
      <trkpt lat="43.59375" lon="1.44173">
        <ele>132.3</ele>
        <time>2017-03-06T11:46:06Z</time>
      </trkpt>
      <trkpt lat="43.59367" lon="1.4418">
        <ele>132.3</ele>
        <time>2017-03-06T11:46:11Z</time>
      </trkpt>
      <trkpt lat="43.59362" lon="1.44192">
        <ele>132.2</ele>
        <time>2017-03-06T11:46:14Z</time>
      </trkpt>
      <trkpt lat="43.59355" lon="1.44204">
        <ele>132.2</ele>
        <time>2017-03-06T11:46:18Z</time>
      </trkpt>
      <trkpt lat="43.59347" lon="1.44218">
        <ele>132.2</ele>
        <time>2017-03-06T11:46:23Z</time>
      </trkpt>
      <trkpt lat="43.59339" lon="1.44236">
        <ele>132.2</ele>
        <time>2017-03-06T11:46:30Z</time>
      </trkpt>
      <trkpt lat="43.5933" lon="1.44252">
        <ele>132.2</ele>
        <time>2017-03-06T11:46:36Z</time>
      </trkpt>
      <trkpt lat="43.59324" lon="1.44262">
        <ele>132.2</ele>
        <time>2017-03-06T11:46:40Z</time>
      </trkpt>
      <trkpt lat="43.59324" lon="1.44273">
        <ele>132.5</ele>
        <time>2017-03-06T11:46:44Z</time>
      </trkpt>
      <trkpt lat="43.59319" lon="1.44276">
        <ele>132.5</ele>
        <time>2017-03-06T11:46:48Z</time>
      </trkpt>
      <trkpt lat="43.5931" lon="1.44273">
        <ele>133.4</ele>
        <time>2017-03-06T11:46:52Z</time>
      </trkpt>
      <trkpt lat="43.59287" lon="1.44261">
        <ele>135.9</ele>
        <time>2017-03-06T11:47:02Z</time>
      </trkpt>
      <trkpt lat="43.59262" lon="1.44245">
        <ele>137.5</ele>
        <time>2017-03-06T11:47:11Z</time>
      </trkpt>
      <trkpt lat="43.59242" lon="1.44229">
        <ele>137.9</ele>
        <time>2017-03-06T11:47:21Z</time>
      </trkpt>
      <trkpt lat="43.59222" lon="1.44214">
        <ele>138.1</ele>
        <time>2017-03-06T11:47:30Z</time>
      </trkpt>
      <trkpt lat="43.5921" lon="1.44205">
        <ele>138.1</ele>
        <time>2017-03-06T11:47:37Z</time>
      </trkpt>
      <trkpt lat="43.592" lon="1.442">
        <ele>138.1</ele>
        <time>2017-03-06T11:47:42Z</time>
      </trkpt>
      <trkpt lat="43.59198" lon="1.44161">
        <ele>138.1</ele>
        <time>2017-03-06T11:47:48Z</time>
      </trkpt>
      <trkpt lat="43.59177" lon="1.4414">
        <ele>138.1</ele>
        <time>2017-03-06T11:47:58Z</time>
      </trkpt>
      <trkpt lat="43.59148" lon="1.44128">
        <ele>138</ele>
        <time>2017-03-06T11:48:08Z</time>
      </trkpt>
      <trkpt lat="43.59123" lon="1.44115">
        <ele>136</ele>
        <time>2017-03-06T11:48:18Z</time>
      </trkpt>
      <trkpt lat="43.59102" lon="1.44108">
        <ele>134.9</ele>
        <time>2017-03-06T11:48:28Z</time>
      </trkpt>
      <trkpt lat="43.5908" lon="1.44105">
        <ele>134.7</ele>
        <time>2017-03-06T11:48:38Z</time>
      </trkpt>
      <trkpt lat="43.59056" lon="1.44098">
        <ele>134.8</ele>
        <time>2017-03-06T11:48:48Z</time>
      </trkpt>
      <trkpt lat="43.59044" lon="1.44095">
        <ele>134.8</ele>
        <time>2017-03-06T11:48:52Z</time>
      </trkpt>
      <trkpt lat="43.59035" lon="1.44089">
        <ele>134.8</ele>
        <time>2017-03-06T11:48:55Z</time>
      </trkpt>
      <trkpt lat="43.59023" lon="1.44081">
        <ele>134.9</ele>
        <time>2017-03-06T11:49:00Z</time>
      </trkpt>
      <trkpt lat="43.5901" lon="1.44074">
        <ele>135</ele>
        <time>2017-03-06T11:49:04Z</time>
      </trkpt>
      <trkpt lat="43.59004" lon="1.44075">
        <ele>135</ele>
        <time>2017-03-06T11:49:06Z</time>
      </trkpt>
      <trkpt lat="43.59" lon="1.4407">
        <ele>135</ele>
        <time>2017-03-06T11:49:08Z</time>
      </trkpt>
      <trkpt lat="43.58988" lon="1.44065">
        <ele>135</ele>
        <time>2017-03-06T11:49:13Z</time>
      </trkpt>
      <trkpt lat="43.58979" lon="1.44056">
        <ele>135.1</ele>
        <time>2017-03-06T11:49:18Z</time>
      </trkpt>
      <trkpt lat="43.58971" lon="1.44051">
        <ele>135.3</ele>
        <time>2017-03-06T11:49:23Z</time>
      </trkpt>
      <trkpt lat="43.58962" lon="1.44044">
        <ele>135.3</ele>
        <time>2017-03-06T11:49:28Z</time>
      </trkpt>
      <trkpt lat="43.5895" lon="1.44038">
        <ele>135.3</ele>
        <time>2017-03-06T11:49:33Z</time>
      </trkpt>
      <trkpt lat="43.58941" lon="1.44029">
        <ele>135.3</ele>
        <time>2017-03-06T11:49:36Z</time>
      </trkpt>
      <trkpt lat="43.58936" lon="1.44026">
        <ele>135.3</ele>
        <time>2017-03-06T11:49:38Z</time>
      </trkpt>
      <trkpt lat="43.58931" lon="1.44022">
        <ele>135.3</ele>
        <time>2017-03-06T11:49:40Z</time>
      </trkpt>
      <trkpt lat="43.58921" lon="1.44007">
        <ele>135.3</ele>
        <time>2017-03-06T11:49:46Z</time>
      </trkpt>
      <trkpt lat="43.58914" lon="1.43999">
        <ele>135.3</ele>
        <time>2017-03-06T11:49:50Z</time>
      </trkpt>
      <trkpt lat="43.58902" lon="1.43989">
        <ele>135.1</ele>
        <time>2017-03-06T11:49:55Z</time>
      </trkpt>
      <trkpt lat="43.58892" lon="1.43982">
        <ele>134.9</ele>
        <time>2017-03-06T11:50:01Z</time>
      </trkpt>
      <trkpt lat="43.58866" lon="1.43961">
        <ele>134.6</ele>
        <time>2017-03-06T11:50:11Z</time>
      </trkpt>
      <trkpt lat="43.58844" lon="1.43945">
        <ele>134.2</ele>
        <time>2017-03-06T11:50:21Z</time>
      </trkpt>
      <trkpt lat="43.58836" lon="1.43938">
        <ele>134</ele>
        <time>2017-03-06T11:50:26Z</time>
      </trkpt>
      <trkpt lat="43.58827" lon="1.43933">
        <ele>133.8</ele>
        <time>2017-03-06T11:50:29Z</time>
      </trkpt>
      <trkpt lat="43.58818" lon="1.43926">
        <ele>133.7</ele>
        <time>2017-03-06T11:50:33Z</time>
      </trkpt>
      <trkpt lat="43.58807" lon="1.43922">
        <ele>133.3</ele>
        <time>2017-03-06T11:50:38Z</time>
      </trkpt>
      <trkpt lat="43.58797" lon="1.43918">
        <ele>133.2</ele>
        <time>2017-03-06T11:50:42Z</time>
      </trkpt>
      <trkpt lat="43.58783" lon="1.43913">
        <ele>133.1</ele>
        <time>2017-03-06T11:50:48Z</time>
      </trkpt>
      <trkpt lat="43.58768" lon="1.4391">
        <ele>133.1</ele>
        <time>2017-03-06T11:50:53Z</time>
      </trkpt>
      <trkpt lat="43.58753" lon="1.43904">
        <ele>133.1</ele>
        <time>2017-03-06T11:50:58Z</time>
      </trkpt>
      <trkpt lat="43.58742" lon="1.43902">
        <ele>133.1</ele>
        <time>2017-03-06T11:51:03Z</time>
      </trkpt>
      <trkpt lat="43.58727" lon="1.43897">
        <ele>133.2</ele>
        <time>2017-03-06T11:51:09Z</time>
      </trkpt>
      <trkpt lat="43.58715" lon="1.43896">
        <ele>133.2</ele>
        <time>2017-03-06T11:51:13Z</time>
      </trkpt>
      <trkpt lat="43.58705" lon="1.43895">
        <ele>133.4</ele>
        <time>2017-03-06T11:51:18Z</time>
      </trkpt>
      <trkpt lat="43.5869" lon="1.43895">
        <ele>133.4</ele>
        <time>2017-03-06T11:51:24Z</time>
      </trkpt>
      <trkpt lat="43.58679" lon="1.43896">
        <ele>133.4</ele>
        <time>2017-03-06T11:51:29Z</time>
      </trkpt>
      <trkpt lat="43.58669" lon="1.43898">
        <ele>133.4</ele>
        <time>2017-03-06T11:51:32Z</time>
      </trkpt>
      <trkpt lat="43.5866" lon="1.43899">
        <ele>133.4</ele>
        <time>2017-03-06T11:51:36Z</time>
      </trkpt>
      <trkpt lat="43.5865" lon="1.43904">
        <ele>133.4</ele>
        <time>2017-03-06T11:51:41Z</time>
      </trkpt>
      <trkpt lat="43.5864" lon="1.43911">
        <ele>133.6</ele>
        <time>2017-03-06T11:51:46Z</time>
      </trkpt>
      <trkpt lat="43.58628" lon="1.43913">
        <ele>133.8</ele>
        <time>2017-03-06T11:51:50Z</time>
      </trkpt>
      <trkpt lat="43.58615" lon="1.43917">
        <ele>133.8</ele>
        <time>2017-03-06T11:51:57Z</time>
      </trkpt>
      <trkpt lat="43.58604" lon="1.43922">
        <ele>133.8</ele>
        <time>2017-03-06T11:52:01Z</time>
      </trkpt>
      <trkpt lat="43.58593" lon="1.43923">
        <ele>133.8</ele>
        <time>2017-03-06T11:52:05Z</time>
      </trkpt>
      <trkpt lat="43.58582" lon="1.43922">
        <ele>133.8</ele>
        <time>2017-03-06T11:52:09Z</time>
      </trkpt>
      <trkpt lat="43.5857" lon="1.43924">
        <ele>133.6</ele>
        <time>2017-03-06T11:52:13Z</time>
      </trkpt>
      <trkpt lat="43.58559" lon="1.43928">
        <ele>133.6</ele>
        <time>2017-03-06T11:52:17Z</time>
      </trkpt>
      <trkpt lat="43.58547" lon="1.43929">
        <ele>133.6</ele>
        <time>2017-03-06T11:52:21Z</time>
      </trkpt>
      <trkpt lat="43.58536" lon="1.4393">
        <ele>133.8</ele>
        <time>2017-03-06T11:52:27Z</time>
      </trkpt>
      <trkpt lat="43.58524" lon="1.43933">
        <ele>133.9</ele>
        <time>2017-03-06T11:52:32Z</time>
      </trkpt>
      <trkpt lat="43.58514" lon="1.43932">
        <ele>134</ele>
        <time>2017-03-06T11:52:36Z</time>
      </trkpt>
      <trkpt lat="43.58499" lon="1.43933">
        <ele>134.1</ele>
        <time>2017-03-06T11:52:41Z</time>
      </trkpt>
      <trkpt lat="43.58488" lon="1.43931">
        <ele>134.1</ele>
        <time>2017-03-06T11:52:45Z</time>
      </trkpt>
      <trkpt lat="43.58473" lon="1.43931">
        <ele>134.1</ele>
        <time>2017-03-06T11:52:51Z</time>
      </trkpt>
      <trkpt lat="43.58463" lon="1.43931">
        <ele>134.2</ele>
        <time>2017-03-06T11:52:55Z</time>
      </trkpt>
      <trkpt lat="43.58452" lon="1.43936">
        <ele>134.3</ele>
        <time>2017-03-06T11:53:00Z</time>
      </trkpt>
      <trkpt lat="43.58447" lon="1.43933">
        <ele>134.5</ele>
        <time>2017-03-06T11:53:02Z</time>
      </trkpt>
      <trkpt lat="43.58442" lon="1.43934">
        <ele>134.5</ele>
        <time>2017-03-06T11:53:05Z</time>
      </trkpt>
      <trkpt lat="43.58428" lon="1.43939">
        <ele>134.8</ele>
        <time>2017-03-06T11:53:16Z</time>
      </trkpt>
      <trkpt lat="43.58424" lon="1.43935">
        <ele>134.9</ele>
        <time>2017-03-06T11:53:18Z</time>
      </trkpt>
      <trkpt lat="43.58419" lon="1.43932">
        <ele>134.9</ele>
        <time>2017-03-06T11:53:21Z</time>
      </trkpt>
      <trkpt lat="43.58418" lon="1.43918">
        <ele>134.9</ele>
        <time>2017-03-06T11:53:28Z</time>
      </trkpt>
      <trkpt lat="43.58419" lon="1.43898">
        <ele>134.9</ele>
        <time>2017-03-06T11:53:34Z</time>
      </trkpt>
      <trkpt lat="43.58418" lon="1.43887">
        <ele>134.9</ele>
        <time>2017-03-06T11:53:38Z</time>
      </trkpt>
      <trkpt lat="43.58418" lon="1.43879">
        <ele>134.9</ele>
        <time>2017-03-06T11:53:39Z</time>
      </trkpt>
      <trkpt lat="43.58421" lon="1.43861">
        <ele>134.9</ele>
        <time>2017-03-06T11:53:44Z</time>
      </trkpt>
      <trkpt lat="43.58423" lon="1.43853">
        <ele>134.9</ele>
        <time>2017-03-06T11:53:47Z</time>
      </trkpt>
      <trkpt lat="43.58422" lon="1.43845">
        <ele>134.9</ele>
        <time>2017-03-06T11:53:50Z</time>
      </trkpt>
      <trkpt lat="43.58424" lon="1.43828">
        <ele>134.8</ele>
        <time>2017-03-06T11:53:55Z</time>
      </trkpt>
      <trkpt lat="43.58424" lon="1.43809">
        <ele>133.6</ele>
        <time>2017-03-06T11:54:01Z</time>
      </trkpt>
      <trkpt lat="43.58423" lon="1.43791">
        <ele>133.6</ele>
        <time>2017-03-06T11:54:06Z</time>
      </trkpt>
      <trkpt lat="43.58424" lon="1.4377">
        <ele>133.6</ele>
        <time>2017-03-06T11:54:13Z</time>
      </trkpt>
      <trkpt lat="43.58425" lon="1.43756">
        <ele>133.6</ele>
        <time>2017-03-06T11:54:17Z</time>
      </trkpt>
      <trkpt lat="43.58425" lon="1.43739">
        <ele>133.6</ele>
        <time>2017-03-06T11:54:21Z</time>
      </trkpt>
      <trkpt lat="43.58427" lon="1.43733">
        <ele>133.6</ele>
        <time>2017-03-06T11:54:23Z</time>
      </trkpt>
      <trkpt lat="43.58427" lon="1.43725">
        <ele>133.6</ele>
        <time>2017-03-06T11:54:25Z</time>
      </trkpt>
      <trkpt lat="43.58425" lon="1.43703">
        <ele>135.8</ele>
        <time>2017-03-06T11:54:33Z</time>
      </trkpt>
      <trkpt lat="43.58425" lon="1.4369">
        <ele>136.7</ele>
        <time>2017-03-06T11:54:37Z</time>
      </trkpt>
      <trkpt lat="43.58426" lon="1.43674">
        <ele>137.1</ele>
        <time>2017-03-06T11:54:42Z</time>
      </trkpt>
      <trkpt lat="43.58426" lon="1.43661">
        <ele>137.6</ele>
        <time>2017-03-06T11:54:45Z</time>
      </trkpt>
      <trkpt lat="43.58425" lon="1.43646">
        <ele>137.9</ele>
        <time>2017-03-06T11:54:49Z</time>
      </trkpt>
      <trkpt lat="43.58426" lon="1.43632">
        <ele>137.9</ele>
        <time>2017-03-06T11:54:54Z</time>
      </trkpt>
      <trkpt lat="43.58425" lon="1.43617">
        <ele>137.9</ele>
        <time>2017-03-06T11:54:58Z</time>
      </trkpt>
      <trkpt lat="43.58426" lon="1.43598">
        <ele>137.9</ele>
        <time>2017-03-06T11:55:03Z</time>
      </trkpt>
      <trkpt lat="43.58426" lon="1.43592">
        <ele>137.9</ele>
        <time>2017-03-06T11:55:05Z</time>
      </trkpt>
      <trkpt lat="43.58426" lon="1.43577">
        <ele>137.9</ele>
        <time>2017-03-06T11:55:10Z</time>
      </trkpt>
      <trkpt lat="43.58425" lon="1.43571">
        <ele>137.9</ele>
        <time>2017-03-06T11:55:11Z</time>
      </trkpt>
      <trkpt lat="43.58428" lon="1.43562">
        <ele>137.9</ele>
        <time>2017-03-06T11:55:15Z</time>
      </trkpt>
      <trkpt lat="43.58429" lon="1.43543">
        <ele>137.9</ele>
        <time>2017-03-06T11:55:21Z</time>
      </trkpt>
      <trkpt lat="43.58431" lon="1.43522">
        <ele>137.9</ele>
        <time>2017-03-06T11:55:25Z</time>
      </trkpt>
      <trkpt lat="43.58433" lon="1.43515">
        <ele>137.9</ele>
        <time>2017-03-06T11:55:28Z</time>
      </trkpt>
      <trkpt lat="43.58434" lon="1.43506">
        <ele>137.9</ele>
        <time>2017-03-06T11:55:30Z</time>
      </trkpt>
      <trkpt lat="43.58435" lon="1.43484">
        <ele>137.9</ele>
        <time>2017-03-06T11:55:36Z</time>
      </trkpt>
      <trkpt lat="43.58435" lon="1.4347">
        <ele>137.9</ele>
        <time>2017-03-06T11:55:39Z</time>
      </trkpt>
      <trkpt lat="43.58437" lon="1.43453">
        <ele>137.9</ele>
        <time>2017-03-06T11:55:44Z</time>
      </trkpt>
      <trkpt lat="43.58438" lon="1.43439">
        <ele>137.9</ele>
        <time>2017-03-06T11:55:48Z</time>
      </trkpt>
      <trkpt lat="43.58438" lon="1.43421">
        <ele>137.9</ele>
        <time>2017-03-06T11:55:53Z</time>
      </trkpt>
      <trkpt lat="43.58439" lon="1.43404">
        <ele>137.9</ele>
        <time>2017-03-06T11:55:57Z</time>
      </trkpt>
      <trkpt lat="43.58441" lon="1.43384">
        <ele>137.9</ele>
        <time>2017-03-06T11:56:01Z</time>
      </trkpt>
      <trkpt lat="43.58441" lon="1.43376">
        <ele>137.9</ele>
        <time>2017-03-06T11:56:05Z</time>
      </trkpt>
      <trkpt lat="43.58441" lon="1.43368">
        <ele>137.9</ele>
        <time>2017-03-06T11:56:07Z</time>
      </trkpt>
      <trkpt lat="43.58443" lon="1.43352">
        <ele>137.8</ele>
        <time>2017-03-06T11:56:12Z</time>
      </trkpt>
      <trkpt lat="43.58443" lon="1.43341">
        <ele>137.3</ele>
        <time>2017-03-06T11:56:15Z</time>
      </trkpt>
      <trkpt lat="43.58442" lon="1.43331">
        <ele>137.3</ele>
        <time>2017-03-06T11:56:18Z</time>
      </trkpt>
      <trkpt lat="43.58443" lon="1.43317">
        <ele>137</ele>
        <time>2017-03-06T11:56:23Z</time>
      </trkpt>
      <trkpt lat="43.58443" lon="1.43302">
        <ele>136.9</ele>
        <time>2017-03-06T11:56:28Z</time>
      </trkpt>
      <trkpt lat="43.58443" lon="1.43282">
        <ele>136.9</ele>
        <time>2017-03-06T11:56:35Z</time>
      </trkpt>
      <trkpt lat="43.58444" lon="1.43268">
        <ele>136.9</ele>
        <time>2017-03-06T11:56:40Z</time>
      </trkpt>
      <trkpt lat="43.58445" lon="1.43252">
        <ele>136.9</ele>
        <time>2017-03-06T11:56:44Z</time>
      </trkpt>
      <trkpt lat="43.58446" lon="1.43238">
        <ele>136.9</ele>
        <time>2017-03-06T11:56:49Z</time>
      </trkpt>
      <trkpt lat="43.5845" lon="1.43223">
        <ele>136.9</ele>
        <time>2017-03-06T11:56:55Z</time>
      </trkpt>
      <trkpt lat="43.58449" lon="1.43199">
        <ele>136.9</ele>
        <time>2017-03-06T11:57:02Z</time>
      </trkpt>
      <trkpt lat="43.58451" lon="1.43179">
        <ele>136.9</ele>
        <time>2017-03-06T11:57:06Z</time>
      </trkpt>
      <trkpt lat="43.58451" lon="1.43172">
        <ele>136.9</ele>
        <time>2017-03-06T11:57:08Z</time>
      </trkpt>
      <trkpt lat="43.58451" lon="1.43165">
        <ele>136.9</ele>
        <time>2017-03-06T11:57:10Z</time>
      </trkpt>
      <trkpt lat="43.58452" lon="1.43144">
        <ele>136.9</ele>
        <time>2017-03-06T11:57:14Z</time>
      </trkpt>
      <trkpt lat="43.58455" lon="1.43129">
        <ele>136.9</ele>
        <time>2017-03-06T11:57:18Z</time>
      </trkpt>
      <trkpt lat="43.58458" lon="1.43114">
        <ele>136.9</ele>
        <time>2017-03-06T11:57:22Z</time>
      </trkpt>
      <trkpt lat="43.58459" lon="1.43101">
        <ele>136.9</ele>
        <time>2017-03-06T11:57:27Z</time>
      </trkpt>
      <trkpt lat="43.58462" lon="1.4308">
        <ele>136.9</ele>
        <time>2017-03-06T11:57:33Z</time>
      </trkpt>
      <trkpt lat="43.58462" lon="1.43057">
        <ele>136.9</ele>
        <time>2017-03-06T11:57:45Z</time>
      </trkpt>
      <trkpt lat="43.58466" lon="1.43037">
        <ele>136.9</ele>
        <time>2017-03-06T11:57:49Z</time>
      </trkpt>
      <trkpt lat="43.58469" lon="1.43021">
        <ele>136.5</ele>
        <time>2017-03-06T11:57:53Z</time>
      </trkpt>
      <trkpt lat="43.58472" lon="1.43004">
        <ele>135.7</ele>
        <time>2017-03-06T11:57:57Z</time>
      </trkpt>
      <trkpt lat="43.58475" lon="1.42985">
        <ele>134.2</ele>
        <time>2017-03-06T11:58:03Z</time>
      </trkpt>
      <trkpt lat="43.58477" lon="1.42976">
        <ele>133.6</ele>
        <time>2017-03-06T11:58:05Z</time>
      </trkpt>
      <trkpt lat="43.58478" lon="1.42969">
        <ele>133.6</ele>
        <time>2017-03-06T11:58:07Z</time>
      </trkpt>
      <trkpt lat="43.58482" lon="1.42951">
        <ele>133.4</ele>
        <time>2017-03-06T11:58:12Z</time>
      </trkpt>
      <trkpt lat="43.58482" lon="1.42944">
        <ele>133.2</ele>
        <time>2017-03-06T11:58:14Z</time>
      </trkpt>
      <trkpt lat="43.58484" lon="1.42935">
        <ele>133.2</ele>
        <time>2017-03-06T11:58:16Z</time>
      </trkpt>
      <trkpt lat="43.5849" lon="1.42916">
        <ele>133.2</ele>
        <time>2017-03-06T11:58:20Z</time>
      </trkpt>
      <trkpt lat="43.58494" lon="1.42903">
        <ele>133.2</ele>
        <time>2017-03-06T11:58:24Z</time>
      </trkpt>
      <trkpt lat="43.58501" lon="1.42892">
        <ele>133.2</ele>
        <time>2017-03-06T11:58:30Z</time>
      </trkpt>
      <trkpt lat="43.58507" lon="1.42887">
        <ele>133.2</ele>
        <time>2017-03-06T11:58:34Z</time>
      </trkpt>
      <trkpt lat="43.58509" lon="1.42879">
        <ele>133.2</ele>
        <time>2017-03-06T11:58:38Z</time>
      </trkpt>
      <trkpt lat="43.58509" lon="1.42886">
        <ele>135</ele>
        <time>2017-03-06T11:58:47Z</time>
      </trkpt>
      <trkpt lat="43.58507" lon="1.42891">
        <ele>135</ele>
        <time>2017-03-06T11:58:48Z</time>
      </trkpt>
      <trkpt lat="43.58504" lon="1.42896">
        <ele>137.3</ele>
        <time>2017-03-06T11:58:51Z</time>
      </trkpt>
      <trkpt lat="43.58503" lon="1.42903">
        <ele>137.3</ele>
        <time>2017-03-06T11:58:52Z</time>
      </trkpt>
      <trkpt lat="43.58504" lon="1.42912">
        <ele>137.3</ele>
        <time>2017-03-06T11:58:54Z</time>
      </trkpt>
      <trkpt lat="43.58498" lon="1.42917">
        <ele>138</ele>
        <time>2017-03-06T11:59:00Z</time>
      </trkpt>
      <trkpt lat="43.58495" lon="1.4292">
        <ele>138.1</ele>
        <time>2017-03-06T11:59:02Z</time>
      </trkpt>
      <trkpt lat="43.58491" lon="1.42923">
        <ele>138.1</ele>
        <time>2017-03-06T11:59:04Z</time>
      </trkpt>
      <trkpt lat="43.58479" lon="1.42926">
        <ele>138.1</ele>
        <time>2017-03-06T11:59:06Z</time>
      </trkpt>
      <trkpt lat="43.58479" lon="1.42903">
        <ele>138.1</ele>
        <time>2017-03-06T11:59:09Z</time>
      </trkpt>
      <trkpt lat="43.58469" lon="1.42896">
        <ele>138.1</ele>
        <time>2017-03-06T11:59:13Z</time>
      </trkpt>
      <trkpt lat="43.58454" lon="1.4289">
        <ele>138.1</ele>
        <time>2017-03-06T11:59:19Z</time>
      </trkpt>
      <trkpt lat="43.58444" lon="1.42887">
        <ele>138.1</ele>
        <time>2017-03-06T11:59:24Z</time>
      </trkpt>
      <trkpt lat="43.58432" lon="1.42882">
        <ele>137.4</ele>
        <time>2017-03-06T11:59:28Z</time>
      </trkpt>
      <trkpt lat="43.58419" lon="1.42876">
        <ele>136.6</ele>
        <time>2017-03-06T11:59:36Z</time>
      </trkpt>
      <trkpt lat="43.58406" lon="1.42868">
        <ele>136.5</ele>
        <time>2017-03-06T11:59:42Z</time>
      </trkpt>
      <trkpt lat="43.58393" lon="1.42861">
        <ele>136.4</ele>
        <time>2017-03-06T11:59:47Z</time>
      </trkpt>
      <trkpt lat="43.5838" lon="1.42855">
        <ele>136.3</ele>
        <time>2017-03-06T11:59:52Z</time>
      </trkpt>
      <trkpt lat="43.58368" lon="1.42852">
        <ele>136.2</ele>
        <time>2017-03-06T11:59:56Z</time>
      </trkpt>
      <trkpt lat="43.58357" lon="1.42846">
        <ele>136.2</ele>
        <time>2017-03-06T12:00:01Z</time>
      </trkpt>
      <trkpt lat="43.58348" lon="1.42842">
        <ele>136.1</ele>
        <time>2017-03-06T12:00:06Z</time>
      </trkpt>
      <trkpt lat="43.58337" lon="1.42836">
        <ele>136.1</ele>
        <time>2017-03-06T12:00:10Z</time>
      </trkpt>
      <trkpt lat="43.58326" lon="1.42832">
        <ele>136</ele>
        <time>2017-03-06T12:00:16Z</time>
      </trkpt>
      <trkpt lat="43.58314" lon="1.42834">
        <ele>135.9</ele>
        <time>2017-03-06T12:00:21Z</time>
      </trkpt>
      <trkpt lat="43.58304" lon="1.42832">
        <ele>135.8</ele>
        <time>2017-03-06T12:00:25Z</time>
      </trkpt>
      <trkpt lat="43.58286" lon="1.42825">
        <ele>134.8</ele>
        <time>2017-03-06T12:00:37Z</time>
      </trkpt>
      <trkpt lat="43.58266" lon="1.42817">
        <ele>133.3</ele>
        <time>2017-03-06T12:00:49Z</time>
      </trkpt>
      <trkpt lat="43.5824" lon="1.42828">
        <ele>133.2</ele>
        <time>2017-03-06T12:00:54Z</time>
      </trkpt>
      <trkpt lat="43.58211" lon="1.42822">
        <ele>133</ele>
        <time>2017-03-06T12:01:01Z</time>
      </trkpt>
      <trkpt lat="43.58187" lon="1.42813">
        <ele>132.9</ele>
        <time>2017-03-06T12:01:11Z</time>
      </trkpt>
      <trkpt lat="43.58166" lon="1.42806">
        <ele>132.9</ele>
        <time>2017-03-06T12:01:21Z</time>
      </trkpt>
      <trkpt lat="43.58136" lon="1.428">
        <ele>132.9</ele>
        <time>2017-03-06T12:01:31Z</time>
      </trkpt>
      <trkpt lat="43.58109" lon="1.4279">
        <ele>132.9</ele>
        <time>2017-03-06T12:01:41Z</time>
      </trkpt>
      <trkpt lat="43.58125" lon="1.42751">
        <ele>132.9</ele>
        <time>2017-03-06T12:01:46Z</time>
      </trkpt>
      <trkpt lat="43.581" lon="1.42744">
        <ele>132.9</ele>
        <time>2017-03-06T12:01:56Z</time>
      </trkpt>
      <trkpt lat="43.58074" lon="1.4273">
        <ele>132.9</ele>
        <time>2017-03-06T12:02:04Z</time>
      </trkpt>
      <trkpt lat="43.58046" lon="1.42731">
        <ele>132.9</ele>
        <time>2017-03-06T12:02:13Z</time>
      </trkpt>
      <trkpt lat="43.58019" lon="1.42729">
        <ele>134.5</ele>
        <time>2017-03-06T12:02:23Z</time>
      </trkpt>
      <trkpt lat="43.57996" lon="1.42714">
        <ele>137</ele>
        <time>2017-03-06T12:02:33Z</time>
      </trkpt>
      <trkpt lat="43.57999" lon="1.42689">
        <ele>137.5</ele>
        <time>2017-03-06T12:02:47Z</time>
      </trkpt>
      <trkpt lat="43.58006" lon="1.42654">
        <ele>138</ele>
        <time>2017-03-06T12:02:57Z</time>
      </trkpt>
      <trkpt lat="43.5801" lon="1.42634">
        <ele>139.1</ele>
        <time>2017-03-06T12:03:01Z</time>
      </trkpt>
      <trkpt lat="43.58015" lon="1.42612">
        <ele>139.6</ele>
        <time>2017-03-06T12:03:05Z</time>
      </trkpt>
      <trkpt lat="43.58019" lon="1.42593">
        <ele>140</ele>
        <time>2017-03-06T12:03:10Z</time>
      </trkpt>
      <trkpt lat="43.58023" lon="1.42575">
        <ele>140.8</ele>
        <time>2017-03-06T12:03:18Z</time>
      </trkpt>
      <trkpt lat="43.58027" lon="1.42557">
        <ele>140.9</ele>
        <time>2017-03-06T12:03:22Z</time>
      </trkpt>
      <trkpt lat="43.58037" lon="1.42552">
        <ele>140.9</ele>
        <time>2017-03-06T12:03:27Z</time>
      </trkpt>
      <trkpt lat="43.58044" lon="1.42553">
        <ele>140.9</ele>
        <time>2017-03-06T12:03:34Z</time>
      </trkpt>
      <trkpt lat="43.58058" lon="1.42552">
        <ele>140.9</ele>
        <time>2017-03-06T12:03:37Z</time>
      </trkpt>
      <trkpt lat="43.58071" lon="1.42556">
        <ele>140.9</ele>
        <time>2017-03-06T12:03:40Z</time>
      </trkpt>
      <trkpt lat="43.58084" lon="1.42547">
        <ele>140.9</ele>
        <time>2017-03-06T12:03:47Z</time>
      </trkpt>
      <trkpt lat="43.58092" lon="1.42531">
        <ele>140.9</ele>
        <time>2017-03-06T12:03:52Z</time>
      </trkpt>
      <trkpt lat="43.58091" lon="1.42524">
        <ele>140.9</ele>
        <time>2017-03-06T12:03:58Z</time>
      </trkpt>
      <trkpt lat="43.58101" lon="1.42517">
        <ele>140.9</ele>
        <time>2017-03-06T12:04:01Z</time>
      </trkpt>
      <trkpt lat="43.58101" lon="1.42501">
        <ele>140.9</ele>
        <time>2017-03-06T12:04:05Z</time>
      </trkpt>
      <trkpt lat="43.58119" lon="1.42468">
        <ele>140.9</ele>
        <time>2017-03-06T12:04:12Z</time>
      </trkpt>
      <trkpt lat="43.58133" lon="1.42445">
        <ele>140.9</ele>
        <time>2017-03-06T12:04:18Z</time>
      </trkpt>
      <trkpt lat="43.58136" lon="1.4243">
        <ele>140.9</ele>
        <time>2017-03-06T12:04:23Z</time>
      </trkpt>
      <trkpt lat="43.58139" lon="1.42411">
        <ele>140.9</ele>
        <time>2017-03-06T12:04:30Z</time>
      </trkpt>
      <trkpt lat="43.58149" lon="1.42397">
        <ele>140.9</ele>
        <time>2017-03-06T12:04:36Z</time>
      </trkpt>
      <trkpt lat="43.58156" lon="1.4238">
        <ele>140.9</ele>
        <time>2017-03-06T12:04:39Z</time>
      </trkpt>
      <trkpt lat="43.58158" lon="1.42359">
        <ele>140.9</ele>
        <time>2017-03-06T12:04:46Z</time>
      </trkpt>
      <trkpt lat="43.58163" lon="1.42347">
        <ele>140.9</ele>
        <time>2017-03-06T12:04:49Z</time>
      </trkpt>
      <trkpt lat="43.58168" lon="1.42337">
        <ele>140.9</ele>
        <time>2017-03-06T12:04:52Z</time>
      </trkpt>
      <trkpt lat="43.58174" lon="1.42318">
        <ele>140.9</ele>
        <time>2017-03-06T12:04:57Z</time>
      </trkpt>
      <trkpt lat="43.58179" lon="1.42303">
        <ele>140.9</ele>
        <time>2017-03-06T12:05:02Z</time>
      </trkpt>
      <trkpt lat="43.58176" lon="1.42297">
        <ele>140.9</ele>
        <time>2017-03-06T12:05:04Z</time>
      </trkpt>
      <trkpt lat="43.58177" lon="1.4229">
        <ele>140.9</ele>
        <time>2017-03-06T12:05:05Z</time>
      </trkpt>
      <trkpt lat="43.5818" lon="1.42283">
        <ele>140.9</ele>
        <time>2017-03-06T12:05:07Z</time>
      </trkpt>
      <trkpt lat="43.58182" lon="1.42276">
        <ele>140.9</ele>
        <time>2017-03-06T12:05:10Z</time>
      </trkpt>
      <trkpt lat="43.58188" lon="1.42262">
        <ele>140.9</ele>
        <time>2017-03-06T12:05:16Z</time>
      </trkpt>
      <trkpt lat="43.58193" lon="1.42252">
        <ele>140.9</ele>
        <time>2017-03-06T12:05:20Z</time>
      </trkpt>
      <trkpt lat="43.58194" lon="1.42238">
        <ele>140.9</ele>
        <time>2017-03-06T12:05:22Z</time>
      </trkpt>
      <trkpt lat="43.58198" lon="1.42226">
        <ele>140.9</ele>
        <time>2017-03-06T12:05:28Z</time>
      </trkpt>
      <trkpt lat="43.58201" lon="1.42209">
        <ele>140.9</ele>
        <time>2017-03-06T12:05:32Z</time>
      </trkpt>
      <trkpt lat="43.58203" lon="1.42202">
        <ele>140.9</ele>
        <time>2017-03-06T12:05:34Z</time>
      </trkpt>
      <trkpt lat="43.58218" lon="1.422">
        <ele>140.9</ele>
        <time>2017-03-06T12:05:41Z</time>
      </trkpt>
      <trkpt lat="43.58227" lon="1.42198">
        <ele>140.9</ele>
        <time>2017-03-06T12:05:44Z</time>
      </trkpt>
      <trkpt lat="43.58242" lon="1.42203">
        <ele>140.9</ele>
        <time>2017-03-06T12:05:49Z</time>
      </trkpt>
      <trkpt lat="43.58247" lon="1.42205">
        <ele>140.9</ele>
        <time>2017-03-06T12:05:51Z</time>
      </trkpt>
      <trkpt lat="43.58252" lon="1.42207">
        <ele>140.9</ele>
        <time>2017-03-06T12:05:53Z</time>
      </trkpt>
      <trkpt lat="43.58265" lon="1.42213">
        <ele>140.9</ele>
        <time>2017-03-06T12:05:58Z</time>
      </trkpt>
      <trkpt lat="43.5827" lon="1.42216">
        <ele>140.9</ele>
        <time>2017-03-06T12:06:01Z</time>
      </trkpt>
      <trkpt lat="43.58277" lon="1.42218">
        <ele>140.9</ele>
        <time>2017-03-06T12:06:04Z</time>
      </trkpt>
      <trkpt lat="43.58287" lon="1.42224">
        <ele>140.9</ele>
        <time>2017-03-06T12:06:09Z</time>
      </trkpt>
      <trkpt lat="43.583" lon="1.42232">
        <ele>140.9</ele>
        <time>2017-03-06T12:06:14Z</time>
      </trkpt>
      <trkpt lat="43.58313" lon="1.42238">
        <ele>140.6</ele>
        <time>2017-03-06T12:06:20Z</time>
      </trkpt>
      <trkpt lat="43.5832" lon="1.42238">
        <ele>140.4</ele>
        <time>2017-03-06T12:06:22Z</time>
      </trkpt>
      <trkpt lat="43.58326" lon="1.42239">
        <ele>140.4</ele>
        <time>2017-03-06T12:06:24Z</time>
      </trkpt>
      <trkpt lat="43.58338" lon="1.42241">
        <ele>140.3</ele>
        <time>2017-03-06T12:06:30Z</time>
      </trkpt>
      <trkpt lat="43.58348" lon="1.42241">
        <ele>140.2</ele>
        <time>2017-03-06T12:06:33Z</time>
      </trkpt>
      <trkpt lat="43.58358" lon="1.42243">
        <ele>140</ele>
        <time>2017-03-06T12:06:37Z</time>
      </trkpt>
      <trkpt lat="43.58364" lon="1.42245">
        <ele>140</ele>
        <time>2017-03-06T12:06:39Z</time>
      </trkpt>
      <trkpt lat="43.58369" lon="1.42247">
        <ele>140</ele>
        <time>2017-03-06T12:06:42Z</time>
      </trkpt>
      <trkpt lat="43.58381" lon="1.42249">
        <ele>140</ele>
        <time>2017-03-06T12:06:46Z</time>
      </trkpt>
      <trkpt lat="43.5839" lon="1.42248">
        <ele>139.9</ele>
        <time>2017-03-06T12:06:50Z</time>
      </trkpt>
      <trkpt lat="43.584" lon="1.42249">
        <ele>139.9</ele>
        <time>2017-03-06T12:06:54Z</time>
      </trkpt>
      <trkpt lat="43.5841" lon="1.42253">
        <ele>139.9</ele>
        <time>2017-03-06T12:06:58Z</time>
      </trkpt>
      <trkpt lat="43.58425" lon="1.42256">
        <ele>139.9</ele>
        <time>2017-03-06T12:07:04Z</time>
      </trkpt>
      <trkpt lat="43.58441" lon="1.42259">
        <ele>139.9</ele>
        <time>2017-03-06T12:07:11Z</time>
      </trkpt>
      <trkpt lat="43.58451" lon="1.42261">
        <ele>139.9</ele>
        <time>2017-03-06T12:07:14Z</time>
      </trkpt>
      <trkpt lat="43.58467" lon="1.42265">
        <ele>139.9</ele>
        <time>2017-03-06T12:07:21Z</time>
      </trkpt>
      <trkpt lat="43.58481" lon="1.42267">
        <ele>139.9</ele>
        <time>2017-03-06T12:07:28Z</time>
      </trkpt>
      <trkpt lat="43.58498" lon="1.42269">
        <ele>139.9</ele>
        <time>2017-03-06T12:07:34Z</time>
      </trkpt>
      <trkpt lat="43.58513" lon="1.4227">
        <ele>139.9</ele>
        <time>2017-03-06T12:07:39Z</time>
      </trkpt>
      <trkpt lat="43.58523" lon="1.4227">
        <ele>139.9</ele>
        <time>2017-03-06T12:07:43Z</time>
      </trkpt>
      <trkpt lat="43.58534" lon="1.42273">
        <ele>139.9</ele>
        <time>2017-03-06T12:07:47Z</time>
      </trkpt>
      <trkpt lat="43.58548" lon="1.42277">
        <ele>139.9</ele>
        <time>2017-03-06T12:07:52Z</time>
      </trkpt>
      <trkpt lat="43.58563" lon="1.42281">
        <ele>139.9</ele>
        <time>2017-03-06T12:07:58Z</time>
      </trkpt>
      <trkpt lat="43.58576" lon="1.42283">
        <ele>139.9</ele>
        <time>2017-03-06T12:08:03Z</time>
      </trkpt>
      <trkpt lat="43.58589" lon="1.42284">
        <ele>139.9</ele>
        <time>2017-03-06T12:08:07Z</time>
      </trkpt>
      <trkpt lat="43.58599" lon="1.42287">
        <ele>139.9</ele>
        <time>2017-03-06T12:08:12Z</time>
      </trkpt>
      <trkpt lat="43.58609" lon="1.4229">
        <ele>139.9</ele>
        <time>2017-03-06T12:08:16Z</time>
      </trkpt>
      <trkpt lat="43.58623" lon="1.4229">
        <ele>139.9</ele>
        <time>2017-03-06T12:08:22Z</time>
      </trkpt>
      <trkpt lat="43.58635" lon="1.42291">
        <ele>139.9</ele>
        <time>2017-03-06T12:08:26Z</time>
      </trkpt>
      <trkpt lat="43.58645" lon="1.42293">
        <ele>139.9</ele>
        <time>2017-03-06T12:08:30Z</time>
      </trkpt>
      <trkpt lat="43.58656" lon="1.42295">
        <ele>139.9</ele>
        <time>2017-03-06T12:08:34Z</time>
      </trkpt>
      <trkpt lat="43.58666" lon="1.42297">
        <ele>139.9</ele>
        <time>2017-03-06T12:08:37Z</time>
      </trkpt>
      <trkpt lat="43.5868" lon="1.42299">
        <ele>139.8</ele>
        <time>2017-03-06T12:08:43Z</time>
      </trkpt>
      <trkpt lat="43.58689" lon="1.42301">
        <ele>139.6</ele>
        <time>2017-03-06T12:08:47Z</time>
      </trkpt>
      <trkpt lat="43.58704" lon="1.42302">
        <ele>139.5</ele>
        <time>2017-03-06T12:08:53Z</time>
      </trkpt>
      <trkpt lat="43.58714" lon="1.42304">
        <ele>139.4</ele>
        <time>2017-03-06T12:08:56Z</time>
      </trkpt>
      <trkpt lat="43.58723" lon="1.42305">
        <ele>139.4</ele>
        <time>2017-03-06T12:09:00Z</time>
      </trkpt>
      <trkpt lat="43.58734" lon="1.42309">
        <ele>139.2</ele>
        <time>2017-03-06T12:09:04Z</time>
      </trkpt>
      <trkpt lat="43.58743" lon="1.42312">
        <ele>139.1</ele>
        <time>2017-03-06T12:09:07Z</time>
      </trkpt>
      <trkpt lat="43.58758" lon="1.42316">
        <ele>138.9</ele>
        <time>2017-03-06T12:09:13Z</time>
      </trkpt>
      <trkpt lat="43.58767" lon="1.42318">
        <ele>138.9</ele>
        <time>2017-03-06T12:09:16Z</time>
      </trkpt>
      <trkpt lat="43.58778" lon="1.42319">
        <ele>138.9</ele>
        <time>2017-03-06T12:09:20Z</time>
      </trkpt>
      <trkpt lat="43.58789" lon="1.42323">
        <ele>138.9</ele>
        <time>2017-03-06T12:09:26Z</time>
      </trkpt>
      <trkpt lat="43.58799" lon="1.42326">
        <ele>138.9</ele>
        <time>2017-03-06T12:09:30Z</time>
      </trkpt>
      <trkpt lat="43.58813" lon="1.42326">
        <ele>138.9</ele>
        <time>2017-03-06T12:09:34Z</time>
      </trkpt>
      <trkpt lat="43.58827" lon="1.42328">
        <ele>138.9</ele>
        <time>2017-03-06T12:09:39Z</time>
      </trkpt>
      <trkpt lat="43.58838" lon="1.42331">
        <ele>138.9</ele>
        <time>2017-03-06T12:09:43Z</time>
      </trkpt>
      <trkpt lat="43.5885" lon="1.42334">
        <ele>138.9</ele>
        <time>2017-03-06T12:09:50Z</time>
      </trkpt>
      <trkpt lat="43.58859" lon="1.42334">
        <ele>138.9</ele>
        <time>2017-03-06T12:09:53Z</time>
      </trkpt>
      <trkpt lat="43.58874" lon="1.42332">
        <ele>138.9</ele>
        <time>2017-03-06T12:09:59Z</time>
      </trkpt>
      <trkpt lat="43.58884" lon="1.42335">
        <ele>138.9</ele>
        <time>2017-03-06T12:10:03Z</time>
      </trkpt>
      <trkpt lat="43.58898" lon="1.4234">
        <ele>138.9</ele>
        <time>2017-03-06T12:10:10Z</time>
      </trkpt>
      <trkpt lat="43.58913" lon="1.42341">
        <ele>138.9</ele>
        <time>2017-03-06T12:10:16Z</time>
      </trkpt>
      <trkpt lat="43.58918" lon="1.42342">
        <ele>138.9</ele>
        <time>2017-03-06T12:10:18Z</time>
      </trkpt>
      <trkpt lat="43.58923" lon="1.42344">
        <ele>138.9</ele>
        <time>2017-03-06T12:10:20Z</time>
      </trkpt>
      <trkpt lat="43.58931" lon="1.42348">
        <ele>138.9</ele>
        <time>2017-03-06T12:10:24Z</time>
      </trkpt>
      <trkpt lat="43.58945" lon="1.42352">
        <ele>138.9</ele>
        <time>2017-03-06T12:10:28Z</time>
      </trkpt>
      <trkpt lat="43.5895" lon="1.42354">
        <ele>138.9</ele>
        <time>2017-03-06T12:10:31Z</time>
      </trkpt>
      <trkpt lat="43.58955" lon="1.42354">
        <ele>138.9</ele>
        <time>2017-03-06T12:10:34Z</time>
      </trkpt>
      <trkpt lat="43.58969" lon="1.42357">
        <ele>138.9</ele>
        <time>2017-03-06T12:10:40Z</time>
      </trkpt>
      <trkpt lat="43.58978" lon="1.42358">
        <ele>138.9</ele>
        <time>2017-03-06T12:10:43Z</time>
      </trkpt>
      <trkpt lat="43.58991" lon="1.42359">
        <ele>138.9</ele>
        <time>2017-03-06T12:10:47Z</time>
      </trkpt>
      <trkpt lat="43.58997" lon="1.4236">
        <ele>138.9</ele>
        <time>2017-03-06T12:10:49Z</time>
      </trkpt>
      <trkpt lat="43.59002" lon="1.42361">
        <ele>138.9</ele>
        <time>2017-03-06T12:10:51Z</time>
      </trkpt>
      <trkpt lat="43.59017" lon="1.42362">
        <ele>138.9</ele>
        <time>2017-03-06T12:10:57Z</time>
      </trkpt>
      <trkpt lat="43.59027" lon="1.42364">
        <ele>138.9</ele>
        <time>2017-03-06T12:11:00Z</time>
      </trkpt>
      <trkpt lat="43.59038" lon="1.42367">
        <ele>138.9</ele>
        <time>2017-03-06T12:11:04Z</time>
      </trkpt>
      <trkpt lat="43.59052" lon="1.42364">
        <ele>138.9</ele>
        <time>2017-03-06T12:11:11Z</time>
      </trkpt>
      <trkpt lat="43.59068" lon="1.42364">
        <ele>138.9</ele>
        <time>2017-03-06T12:11:17Z</time>
      </trkpt>
      <trkpt lat="43.59077" lon="1.4237">
        <ele>138.9</ele>
        <time>2017-03-06T12:11:19Z</time>
      </trkpt>
      <trkpt lat="43.5909" lon="1.4237">
        <ele>138.9</ele>
        <time>2017-03-06T12:11:23Z</time>
      </trkpt>
      <trkpt lat="43.59104" lon="1.4237">
        <ele>138.9</ele>
        <time>2017-03-06T12:11:28Z</time>
      </trkpt>
      <trkpt lat="43.59118" lon="1.42368">
        <ele>138.9</ele>
        <time>2017-03-06T12:11:34Z</time>
      </trkpt>
      <trkpt lat="43.59129" lon="1.42367">
        <ele>138.9</ele>
        <time>2017-03-06T12:11:38Z</time>
      </trkpt>
      <trkpt lat="43.59143" lon="1.42364">
        <ele>138.9</ele>
        <time>2017-03-06T12:11:43Z</time>
      </trkpt>
      <trkpt lat="43.59156" lon="1.42359">
        <ele>138.9</ele>
        <time>2017-03-06T12:11:47Z</time>
      </trkpt>
      <trkpt lat="43.59166" lon="1.42355">
        <ele>138.9</ele>
        <time>2017-03-06T12:11:52Z</time>
      </trkpt>
      <trkpt lat="43.5917" lon="1.42351">
        <ele>138.9</ele>
        <time>2017-03-06T12:11:54Z</time>
      </trkpt>
      <trkpt lat="43.59176" lon="1.42349">
        <ele>138.9</ele>
        <time>2017-03-06T12:11:56Z</time>
      </trkpt>
      <trkpt lat="43.5919" lon="1.42343">
        <ele>138.9</ele>
        <time>2017-03-06T12:12:01Z</time>
      </trkpt>
      <trkpt lat="43.592" lon="1.42338">
        <ele>138.9</ele>
        <time>2017-03-06T12:12:05Z</time>
      </trkpt>
      <trkpt lat="43.59211" lon="1.42333">
        <ele>138.9</ele>
        <time>2017-03-06T12:12:09Z</time>
      </trkpt>
      <trkpt lat="43.5922" lon="1.42328">
        <ele>138.9</ele>
        <time>2017-03-06T12:12:13Z</time>
      </trkpt>
      <trkpt lat="43.5923" lon="1.42322">
        <ele>138.9</ele>
        <time>2017-03-06T12:12:17Z</time>
      </trkpt>
      <trkpt lat="43.5924" lon="1.42314">
        <ele>138.9</ele>
        <time>2017-03-06T12:12:21Z</time>
      </trkpt>
      <trkpt lat="43.59244" lon="1.42311">
        <ele>138.9</ele>
        <time>2017-03-06T12:12:24Z</time>
      </trkpt>
      <trkpt lat="43.59249" lon="1.42308">
        <ele>138.9</ele>
        <time>2017-03-06T12:12:26Z</time>
      </trkpt>
      <trkpt lat="43.59261" lon="1.42296">
        <ele>138.9</ele>
        <time>2017-03-06T12:12:30Z</time>
      </trkpt>
      <trkpt lat="43.59268" lon="1.42293">
        <ele>138.9</ele>
        <time>2017-03-06T12:12:33Z</time>
      </trkpt>
      <trkpt lat="43.59272" lon="1.4229">
        <ele>138.9</ele>
        <time>2017-03-06T12:12:35Z</time>
      </trkpt>
      <trkpt lat="43.59282" lon="1.42279">
        <ele>138.9</ele>
        <time>2017-03-06T12:12:41Z</time>
      </trkpt>
      <trkpt lat="43.59291" lon="1.42268">
        <ele>138.9</ele>
        <time>2017-03-06T12:12:44Z</time>
      </trkpt>
      <trkpt lat="43.59298" lon="1.42259">
        <ele>138.9</ele>
        <time>2017-03-06T12:12:48Z</time>
      </trkpt>
      <trkpt lat="43.59307" lon="1.42244">
        <ele>138.9</ele>
        <time>2017-03-06T12:12:54Z</time>
      </trkpt>
      <trkpt lat="43.59319" lon="1.42229">
        <ele>138.8</ele>
        <time>2017-03-06T12:13:00Z</time>
      </trkpt>
      <trkpt lat="43.59326" lon="1.42216">
        <ele>138.2</ele>
        <time>2017-03-06T12:13:05Z</time>
      </trkpt>
      <trkpt lat="43.59333" lon="1.42207">
        <ele>138</ele>
        <time>2017-03-06T12:13:08Z</time>
      </trkpt>
      <trkpt lat="43.59342" lon="1.42192">
        <ele>137.9</ele>
        <time>2017-03-06T12:13:15Z</time>
      </trkpt>
      <trkpt lat="43.59349" lon="1.42182">
        <ele>137.9</ele>
        <time>2017-03-06T12:13:19Z</time>
      </trkpt>
      <trkpt lat="43.59358" lon="1.42168">
        <ele>137.9</ele>
        <time>2017-03-06T12:13:24Z</time>
      </trkpt>
      <trkpt lat="43.59361" lon="1.42146">
        <ele>137.9</ele>
        <time>2017-03-06T12:13:31Z</time>
      </trkpt>
      <trkpt lat="43.59366" lon="1.42132">
        <ele>137.9</ele>
        <time>2017-03-06T12:13:34Z</time>
      </trkpt>
      <trkpt lat="43.59368" lon="1.42126">
        <ele>137.9</ele>
        <time>2017-03-06T12:13:37Z</time>
      </trkpt>
      <trkpt lat="43.59373" lon="1.42107">
        <ele>137.9</ele>
        <time>2017-03-06T12:13:42Z</time>
      </trkpt>
      <trkpt lat="43.59377" lon="1.42093">
        <ele>137.9</ele>
        <time>2017-03-06T12:13:46Z</time>
      </trkpt>
      <trkpt lat="43.59379" lon="1.42078">
        <ele>137.9</ele>
        <time>2017-03-06T12:13:50Z</time>
      </trkpt>
      <trkpt lat="43.59383" lon="1.42058">
        <ele>137.9</ele>
        <time>2017-03-06T12:13:54Z</time>
      </trkpt>
      <trkpt lat="43.59385" lon="1.42045">
        <ele>137.9</ele>
        <time>2017-03-06T12:13:58Z</time>
      </trkpt>
      <trkpt lat="43.59388" lon="1.42027">
        <ele>137.9</ele>
        <time>2017-03-06T12:14:02Z</time>
      </trkpt>
      <trkpt lat="43.59391" lon="1.42009">
        <ele>137.9</ele>
        <time>2017-03-06T12:14:06Z</time>
      </trkpt>
      <trkpt lat="43.59394" lon="1.41984">
        <ele>137.9</ele>
        <time>2017-03-06T12:14:12Z</time>
      </trkpt>
      <trkpt lat="43.59404" lon="1.41945">
        <ele>137.9</ele>
        <time>2017-03-06T12:14:21Z</time>
      </trkpt>
      <trkpt lat="43.59386" lon="1.41938">
        <ele>137.9</ele>
        <time>2017-03-06T12:14:24Z</time>
      </trkpt>
      <trkpt lat="43.59387" lon="1.41933">
        <ele>137.9</ele>
        <time>2017-03-06T12:14:30Z</time>
      </trkpt>
      <trkpt lat="43.59388" lon="1.41929">
        <ele>138.2</ele>
        <time>2017-03-06T12:14:37Z</time>
      </trkpt>
      <trkpt lat="43.59391" lon="1.41928">
        <ele>138.2</ele>
        <time>2017-03-06T12:14:39Z</time>
      </trkpt>
      <trkpt lat="43.59399" lon="1.41935">
        <ele>138.3</ele>
        <time>2017-03-06T12:14:41Z</time>
      </trkpt>
      <trkpt lat="43.59411" lon="1.41963">
        <ele>138.6</ele>
        <time>2017-03-06T12:14:45Z</time>
      </trkpt>
      <trkpt lat="43.59411" lon="1.41956">
        <ele>138.9</ele>
        <time>2017-03-06T12:14:55Z</time>
      </trkpt>
      <trkpt lat="43.59417" lon="1.41954">
        <ele>138.9</ele>
        <time>2017-03-06T12:15:00Z</time>
      </trkpt>
      <trkpt lat="43.59415" lon="1.41943">
        <ele>138.9</ele>
        <time>2017-03-06T12:15:04Z</time>
      </trkpt>
      <trkpt lat="43.59413" lon="1.41923">
        <ele>138.9</ele>
        <time>2017-03-06T12:15:07Z</time>
      </trkpt>
      <trkpt lat="43.59413" lon="1.41909">
        <ele>138.9</ele>
        <time>2017-03-06T12:15:10Z</time>
      </trkpt>
      <trkpt lat="43.59412" lon="1.41896">
        <ele>138.9</ele>
        <time>2017-03-06T12:15:13Z</time>
      </trkpt>
      <trkpt lat="43.59411" lon="1.41877">
        <ele>138.9</ele>
        <time>2017-03-06T12:15:17Z</time>
      </trkpt>
      <trkpt lat="43.59405" lon="1.41863">
        <ele>138.9</ele>
        <time>2017-03-06T12:15:21Z</time>
      </trkpt>
      <trkpt lat="43.59403" lon="1.41837">
        <ele>138.9</ele>
        <time>2017-03-06T12:15:26Z</time>
      </trkpt>
      <trkpt lat="43.594" lon="1.41818">
        <ele>138.9</ele>
        <time>2017-03-06T12:15:31Z</time>
      </trkpt>
      <trkpt lat="43.59401" lon="1.41801">
        <ele>138.9</ele>
        <time>2017-03-06T12:15:35Z</time>
      </trkpt>
      <trkpt lat="43.594" lon="1.41782">
        <ele>138.9</ele>
        <time>2017-03-06T12:15:40Z</time>
      </trkpt>
      <trkpt lat="43.594" lon="1.41767">
        <ele>138.9</ele>
        <time>2017-03-06T12:15:45Z</time>
      </trkpt>
      <trkpt lat="43.59399" lon="1.41747">
        <ele>138.9</ele>
        <time>2017-03-06T12:15:50Z</time>
      </trkpt>
      <trkpt lat="43.594" lon="1.41721">
        <ele>138.9</ele>
        <time>2017-03-06T12:15:54Z</time>
      </trkpt>
      <trkpt lat="43.59406" lon="1.41699">
        <ele>138.9</ele>
        <time>2017-03-06T12:15:58Z</time>
      </trkpt>
      <trkpt lat="43.59403" lon="1.41684">
        <ele>138.9</ele>
        <time>2017-03-06T12:16:04Z</time>
      </trkpt>
      <trkpt lat="43.59401" lon="1.41667">
        <ele>138.9</ele>
        <time>2017-03-06T12:16:09Z</time>
      </trkpt>
      <trkpt lat="43.59397" lon="1.41646">
        <ele>138.9</ele>
        <time>2017-03-06T12:16:13Z</time>
      </trkpt>
      <trkpt lat="43.59395" lon="1.41631">
        <ele>138.9</ele>
        <time>2017-03-06T12:16:17Z</time>
      </trkpt>
      <trkpt lat="43.59393" lon="1.41621">
        <ele>138.9</ele>
        <time>2017-03-06T12:16:20Z</time>
      </trkpt>
      <trkpt lat="43.59391" lon="1.41602">
        <ele>138.9</ele>
        <time>2017-03-06T12:16:26Z</time>
      </trkpt>
      <trkpt lat="43.59391" lon="1.41583">
        <ele>138.9</ele>
        <time>2017-03-06T12:16:31Z</time>
      </trkpt>
      <trkpt lat="43.59391" lon="1.41569">
        <ele>138.8</ele>
        <time>2017-03-06T12:16:34Z</time>
      </trkpt>
      <trkpt lat="43.5939" lon="1.41553">
        <ele>138.8</ele>
        <time>2017-03-06T12:16:38Z</time>
      </trkpt>
      <trkpt lat="43.59389" lon="1.41544">
        <ele>138.8</ele>
        <time>2017-03-06T12:16:40Z</time>
      </trkpt>
      <trkpt lat="43.59388" lon="1.41535">
        <ele>138.8</ele>
        <time>2017-03-06T12:16:43Z</time>
      </trkpt>
      <trkpt lat="43.59387" lon="1.41522">
        <ele>138.8</ele>
        <time>2017-03-06T12:16:46Z</time>
      </trkpt>
      <trkpt lat="43.59391" lon="1.41519">
        <ele>138.8</ele>
        <time>2017-03-06T12:16:52Z</time>
      </trkpt>
      <trkpt lat="43.594" lon="1.4152">
        <ele>138.8</ele>
        <time>2017-03-06T12:16:57Z</time>
      </trkpt>
      <trkpt lat="43.5941" lon="1.41518">
        <ele>138.7</ele>
        <time>2017-03-06T12:17:00Z</time>
      </trkpt>
      <trkpt lat="43.59421" lon="1.41505">
        <ele>138.7</ele>
        <time>2017-03-06T12:17:03Z</time>
      </trkpt>
      <trkpt lat="43.59431" lon="1.41504">
        <ele>138.7</ele>
        <time>2017-03-06T12:17:06Z</time>
      </trkpt>
      <trkpt lat="43.59436" lon="1.41516">
        <ele>138.7</ele>
        <time>2017-03-06T12:17:10Z</time>
      </trkpt>
      <trkpt lat="43.59444" lon="1.41523">
        <ele>138.6</ele>
        <time>2017-03-06T12:17:13Z</time>
      </trkpt>
      <trkpt lat="43.59458" lon="1.41526">
        <ele>138.6</ele>
        <time>2017-03-06T12:17:18Z</time>
      </trkpt>
      <trkpt lat="43.59477" lon="1.41548">
        <ele>137.9</ele>
        <time>2017-03-06T12:17:27Z</time>
      </trkpt>
      <trkpt lat="43.59477" lon="1.41548">
        <ele>139.4</ele>
        <time>2017-03-06T12:17:27Z</time>
      </trkpt>
      <trkpt lat="43.59477" lon="1.41548">
        <ele>139.4</ele>
        <time>2017-03-06T12:17:34Z</time>
      </trkpt>
    </trkseg>
  </trk>
</gpx>